Flight Track Log - Related Links

Times and Time Zones

All times are in EDT time to prevent confusion due to time zone crossing. See the SWR38 flight status page for this flight to view local times or setup timezone preferences in your user account.


Time Position Orientation Groundspeed Altitude Reporting Facility
EDT Latitude Longitude Course Direction KTS MPH feet Rate Location/Type
Sat 07:34:41 AM 47.4290 8.5680 155° Southeast 173 199 1,900  Level FlightAware ADS-B
Sat 07:34:56 AM 47.4230 8.5820 122° Southeast 171 197 2,200 1,200 Climbing FlightAware ADS-B
Sat 07:35:26 AM 47.4300 8.6090 69° East 163 188 2,800 1,043 Climbing FlightAware ADS-B
Sat 07:36:05 AM 47.4570 8.5970 343° North 180 207 3,400 857 Climbing FlightAware ADS-B
Sat 07:36:15 AM 47.4590 8.5840 283° West 186 214 3,500 968 Climbing FlightAware ADS-B
Sat 07:36:36 AM 47.4570 8.5590 263° West 184 212 3,900 1,235 Climbing FlightAware ADS-B
Sat 07:36:49 AM 47.4530 8.5410 252° West 186 214 4,200 655 Climbing FlightAware ADS-B
Sat 07:37:31 AM 47.4410 8.4990 247° West 205 236 4,500 563 Climbing FlightAware ADS-B
Sat 07:37:53 AM 47.4280 8.4570 245° Southwest 227 261 4,800 906 Climbing FlightAware ADS-B
Sat 07:38:24 AM 47.4110 8.4050 244° Southwest 252 290 5,300 689 Climbing FlightAware ADS-B
Sat 07:38:54 AM 47.3950 8.3580 243° Southwest 281 323 5,500 667 Climbing FlightAware ADS-B
Sat 07:39:09 AM 47.3850 8.3290 243° Southwest 295 339 5,800 1,067 Climbing FlightAware ADS-B
Sat 07:39:39 AM 47.3650 8.2730 242° Southwest 316 364 6,300 1,700 Climbing FlightAware ADS-B
Sat 07:40:09 AM 47.3470 8.2220 242° Southwest 312 359 7,500 2,400 Climbing FlightAware ADS-B
Sat 07:40:24 AM 47.3340 8.1890 240° Southwest 309 356 8,100 2,000 Climbing FlightAware ADS-B
Sat 07:40:54 AM 47.3190 8.1300 249° West 313 360 9,000 1,714 Climbing FlightAware ADS-B
Sat 07:41:20 AM 47.3250 8.0740 279° West 316 364 9,700 1,377 Climbing FlightAware ADS-B
Sat 07:41:55 AM 47.3340 7.9980 280° West 333 383 10,400 846 Climbing FlightAware ADS-B
Sat 07:42:38 AM 47.3440 7.9050 279° West 362 417 10,800 988 Climbing FlightAware ADS-B
Sat 07:43:20 AM 47.3560 7.8060 280° West 370 426 11,800 1,059 Climbing FlightAware ADS-B
Sat 07:44:03 AM 47.3650 7.7210 279° West 390 449 12,300 1,111 Climbing FlightAware ADS-B
Sat 07:44:41 AM 47.3780 7.6070 280° West 399 459 13,300 1,317 Climbing FlightAware ADS-B
Sat 07:45:25 AM 47.3900 7.5020 280° West 411 473 14,100 1,575 Climbing FlightAware ADS-B
Sat 07:46:01 AM 47.4060 7.3560 279° West 420 483 15,400 1,726 Climbing FlightAware ADS-B
Sat 07:46:38 AM 47.4160 7.2550 278° West 424 488 16,200 1,325 Climbing FlightAware ADS-B
Sat 07:47:18 AM 47.4270 7.1340 278° West 433 498 17,100 1,443 Climbing FlightAware ADS-B
Sat 07:47:57 AM 47.4370 7.0220 278° West 437 503 18,100 1,244 Climbing FlightAware ADS-B
Sat 07:48:40 AM 47.4470 6.9110 278° West 445 512 18,800 1,000 Climbing FlightAware ADS-B
Sat 07:49:21 AM 47.4550 6.8120 277° West 448 516 19,500 1,186 Climbing FlightAware ADS-B
Sat 07:50:06 AM 47.4680 6.6660 278° West 456 525 20,500 795 Climbing FlightAware ADS-B
Sat 07:50:44 AM 47.4760 6.5570 276° West 457 526 20,600 1,151 Climbing FlightAware ADS-B
Sat 07:51:19 AM 47.4900 6.4110 278° West 469 540 21,900 1,595 Climbing FlightAware ADS-B
Sat 07:52:03 AM 47.5010 6.2730 277° West 474 545 22,700 1,121 Climbing FlightAware ADS-B
Sat 07:52:50 AM 47.5150 6.1170 278° West 476 548 23,600 1,098 Climbing FlightAware ADS-B
Sat 07:53:25 AM 47.5340 6.0000 284° West 482 555 24,200 759 Climbing FlightAware ADS-B
Sat 07:54:09 AM 47.5600 5.8950 290° West 487 560 24,600 651 Climbing FlightAware ADS-B
Sat 07:54:48 AM 47.6070 5.8050 308° West 485 558 25,100 839 Climbing FlightAware ADS-B
Sat 07:55:42 AM 47.7040 5.6410 311° West 497 572 25,900 695 Climbing FlightAware ADS-B
Sat 07:56:23 AM 47.7690 5.5320 312° West 507 583 26,200 786 Climbing FlightAware ADS-B
Sat 07:57:06 AM 47.8360 5.4190 311° West 505 581 27,000 904 Climbing FlightAware ADS-B
Sat 07:57:36 AM 47.8690 5.3640 312° West 505 581 27,300 847 Climbing FlightAware ADS-B
Sat 07:58:31 AM 47.9480 5.2290 311° West 503 579 28,200 1,000 Climbing FlightAware ADS-B
Sat 07:59:12 AM 48.0090 5.1250 311° West 495 570 28,900 1,103 Climbing FlightAware ADS-B
Sat 07:59:58 AM 48.0970 4.9730 311° West 493 567 29,800 980 Climbing FlightAware ADS-B
Sat 08:00:51 AM 48.1810 4.8280 311° West 30,600 891 Climbing FlightAware ADS-B
Sat 08:01:39 AM 48.2470 4.7150 311° West 492 566 31,300 903 Climbing FlightAware ADS-B
Sat 08:02:24 AM 48.3160 4.5940 311° West 487 560 32,000 462 Climbing FlightAware ADS-B
Sat 08:03:10 AM 48.3850 4.4730 311° West 496 571 32,000  Level FlightAware ADS-B
Sat 08:03:51 AM 48.4330 4.3900 311° West 500 575 32,000  Level FlightAware ADS-B
Sat 08:04:42 AM 48.5150 4.2540 312° West 498 573 32,000  Level FlightAware ADS-B
Sat 08:05:32 AM 48.6050 4.1500 323° Northwest 497 572 32,000  Level FlightAware ADS-B
Sat 08:06:19 AM 48.7070 4.0330 323° Northwest 496 571 32,000  Level FlightAware ADS-B
Sat 08:07:03 AM 48.7960 3.9320 323° Northwest 496 571 32,000  Level FlightAware ADS-B
Sat 08:07:42 AM 48.8670 3.8480 322° Northwest 496 571 32,000  Level FlightAware ADS-B
Sat 08:08:26 AM 48.9460 3.7560 323° Northwest 494 568 32,000  Level FlightAware ADS-B
Sat 08:09:01 AM 49.0110 3.6800 323° Northwest 494 568 32,000  Level FlightAware ADS-B
Sat 08:09:39 AM 49.0650 3.6170 323° Northwest 492 566 32,000  Level FlightAware ADS-B
Sat 08:10:22 AM 49.1410 3.5280 323° Northwest 493 567 32,000  Level FlightAware ADS-B
Sat 08:11:05 AM 49.2260 3.4270 322° Northwest 493 567 32,000  Level FlightAware ADS-B
Sat 08:11:39 AM 49.2930 3.3480 322° Northwest 493 567 32,000  Level FlightAware ADS-B
Sat 08:12:21 AM 49.3690 3.2570 322° Northwest 492 566 32,000  Level FlightAware ADS-B
Sat 08:13:04 AM 49.4450 3.1660 322° Northwest 491 565 32,000  Level FlightAware ADS-B
Sat 08:13:47 AM 49.5150 3.0820 322° Northwest 491 565 32,000  Level FlightAware ADS-B
Sat 08:14:38 AM 49.5890 2.9930 322° Northwest 490 564 32,000  Level FlightAware ADS-B
Sat 08:16:07 AM 49.7450 2.8040 322° Northwest 494 568 32,000  Level FlightAware ADS-B
Sat 08:16:49 AM 49.8460 2.6800 322° Northwest 495 570 32,000  Level FlightAware ADS-B
Sat 08:17:30 AM 49.9200 2.5900 322° Northwest 496 571 32,000  Level FlightAware ADS-B
Sat 08:18:26 AM 50.0180 2.4680 321° Northwest 494 568 32,000  Level FlightAware ADS-B
Sat 08:19:11 AM 50.0990 2.3690 322° Northwest 493 567 32,000  Level FlightAware ADS-B
Sat 08:19:52 AM 50.1550 2.2990 321° Northwest 493 567 32,000  Level FlightAware ADS-B
Sat 08:20:26 AM 50.2180 2.2200 321° Northwest 493 567 32,000  Level FlightAware ADS-B
Sat 08:21:23 AM 50.3140 2.1000 321° Northwest 492 566 32,000  Level FlightAware ADS-B
Sat 08:22:15 AM 50.4170 1.9540 318° Northwest 495 570 32,000  Level FlightAware ADS-B
Sat 08:23:02 AM 50.5020 1.8250 316° Northwest 496 571 32,000  Level FlightAware ADS-B
Sat 08:23:43 AM 50.5670 1.7270 316° Northwest 490 564 32,000  Level FlightAware ADS-B
Sat 08:24:23 AM 50.6340 1.6270 317° Northwest 495 570 32,000  Level FlightAware ADS-B
Sat 08:24:58 AM 50.6940 1.5370 316° Northwest 494 568 32,000  Level FlightAware ADS-B
Sat 08:25:55 AM 50.7800 1.4080 317° Northwest 493 567 32,000  Level FlightAware ADS-B
Sat 08:26:37 AM 50.8430 1.3130 316° Northwest 492 566 32,000  Level FlightAware ADS-B
Sat 08:27:13 AM 50.9000 1.2250 316° Northwest 492 566 32,000  Level FlightAware ADS-B
Sat 08:27:56 AM 50.9700 1.1180 316° Northwest 490 564 32,000  Level FlightAware ADS-B
Sat 08:28:44 AM 51.0650 0.9730 316° Northwest 490 564 32,000  Level FlightAware ADS-B (CYTZ)
Sat 08:28:57 AM 51.0887 0.9360 316° Northwest 491 565 32,000  Level FlightAware ADS-B
Sat 08:29:28 AM 51.1388 0.8584 316° Northwest 491 565 32,000  Level FlightAware ADS-B
Sat 08:29:59 AM 51.1890 0.7807 316° Northwest 491 565 32,000  Level FlightAware ADS-B
Sat 08:30:29 AM 51.2389 0.7031 316° Northwest 491 565 32,000  Level FlightAware ADS-B
Sat 08:30:50 AM 51.2726 0.6494 315° West 492 566 32,000  Level FlightAware ADS-B
Sat 08:31:23 AM 51.3214 0.5607 311° West 492 566 32,000  Level FlightAware ADS-B
Sat 08:31:55 AM 51.3683 0.4732 311° West 492 566 32,000  Level FlightAware ADS-B
Sat 08:32:32 AM 51.4233 0.3696 310° West 494 568 32,000  Level FlightAware ADS-B
Sat 08:33:05 AM 51.4728 0.2758 310° West 493 567 32,000  Level FlightAware ADS-B
Sat 08:33:37 AM 51.5197 0.1871 310° West 493 567 32,000  Level FlightAware ADS-B
Sat 08:34:07 AM 51.5639 0.1034 310° West 492 566 32,000  Level FlightAware ADS-B
Sat 08:34:18 AM 51.5808 0.0766 315° West 491 565 32,000  Level FlightAware ADS-B
Sat 08:34:28 AM 51.5983 0.0536 321° Northwest 491 565 32,000  Level FlightAware ADS-B
Sat 08:35:00 AM 51.6584 -0.0121 326° Northwest 489 563 32,000  Level FlightAware ADS-B
Sat 08:35:31 AM 51.7175 -0.0771 326° Northwest 490 564 32,000  Level FlightAware ADS-B
Sat 08:36:02 AM 51.7739 -0.1391 326° Northwest 491 565 32,000  Level FlightAware ADS-B
Sat 08:36:33 AM 51.8321 -0.2050 325° Northwest 491 565 32,000  Level FlightAware ADS-B
Sat 08:37:04 AM 51.8903 -0.2713 325° Northwest 490 564 32,000  Level FlightAware ADS-B
Sat 08:37:36 AM 51.9490 -0.3382 325° Northwest 491 565 32,000  Level FlightAware ADS-B
Sat 08:38:09 AM 52.0092 -0.4070 325° Northwest 491 565 32,000  Level FlightAware ADS-B
Sat 08:38:41 AM 52.0691 -0.4755 325° Northwest 492 566 32,000  Level FlightAware ADS-B
Sat 08:39:12 AM 52.1269 -0.5408 325° Northwest 492 566 32,000  Level FlightAware ADS-B
Sat 08:39:45 AM 52.1924 -0.6010 331° Northwest 493 567 32,000  Level FlightAware ADS-B
Sat 08:40:17 AM 52.2561 -0.6564 332° Northwest 494 568 32,000  Level FlightAware ADS-B
Sat 08:40:51 AM 52.3252 -0.7172 332° Northwest 496 571 32,000  Level FlightAware ADS-B
Sat 08:41:25 AM 52.3920 -0.7761 332° Northwest 496 571 32,000  Level FlightAware ADS-B
Sat 08:41:55 AM 52.4552 -0.8317 332° Northwest 496 571 32,000  Level FlightAware ADS-B
Sat 08:42:26 AM 52.5179 -0.8870 332° Northwest 497 572 32,000  Level FlightAware ADS-B
Sat 08:42:57 AM 52.5793 -0.9414 332° Northwest 497 572 32,000  Level FlightAware ADS-B
Sat 08:43:27 AM 52.6409 -0.9959 332° Northwest 498 573 32,000  Level FlightAware ADS-B
Sat 08:43:59 AM 52.7057 -1.0536 332° Northwest 497 572 32,000  Level FlightAware ADS-B
Sat 08:44:37 AM 52.7794 -1.1195 332° Northwest 497 572 32,000  Level FlightAware ADS-B
Sat 08:45:13 AM 52.8544 -1.1865 332° Northwest 496 571 32,000  Level FlightAware ADS-B
Sat 08:45:47 AM 52.9238 -1.2490 331° Northwest 495 570 32,000  Level FlightAware ADS-B
Sat 08:46:21 AM 52.9913 -1.3098 332° Northwest 495 570 32,000  Level FlightAware ADS-B
Sat 08:46:52 AM 53.0540 -1.3662 332° Northwest 495 570 32,000  Level FlightAware ADS-B
Sat 08:47:23 AM 53.1168 -1.4222 332° Northwest 496 571 32,000  Level FlightAware ADS-B
Sat 08:47:52 AM 53.1742 -1.4795 329° Northwest 496 571 32,000  Level FlightAware ADS-B
Sat 08:48:38 AM 53.2450 -1.6091 312° West 496 571 32,000  Level FlightAware ADS-B
Sat 08:49:27 AM 53.3180 -1.7487 311° West 497 572 32,000  Level FlightAware ADS-B
Sat 08:49:59 AM 53.3666 -1.8414 311° West 497 572 32,000  Level FlightAware ADS-B
Sat 08:50:29 AM 53.4123 -1.9287 311° West 497 572 32,000  Level FlightAware ADS-B
Sat 08:51:01 AM 53.4586 -2.0173 311° West 495 570 32,000  Level FlightAware ADS-B
Sat 08:51:31 AM 53.5056 -2.1078 311° West 495 570 32,000  Level FlightAware ADS-B
Sat 08:52:09 AM 53.5628 -2.2185 311° West 495 570 32,000  Level FlightAware ADS-B
Sat 08:52:39 AM 53.6078 -2.3060 311° West 495 570 32,000  Level FlightAware ADS-B
Sat 08:53:31 AM 53.6830 -2.4530 311° West 497 572 32,000  Level FlightAware ADS-B
Sat 08:54:19 AM 53.7520 -2.5880 311° West 496 571 32,000  Level FlightAware ADS-B
Sat 08:55:03 AM 53.8010 -2.6840 311° West 497 572 32,000  Level FlightAware ADS-B
Sat 08:55:42 AM 53.8610 -2.8040 310° West 497 572 32,000  Level FlightAware ADS-B
Sat 08:56:19 AM 53.9160 -2.9130 311° West 497 572 32,000  Level FlightAware ADS-B
Sat 08:57:05 AM 54.0020 -3.0860 310° West 497 572 32,000  Level FlightAware ADS-B
Sat 08:57:49 AM 54.0670 -3.2170 310° West 499 574 32,000  Level FlightAware ADS-B
Sat 08:58:30 AM 54.1270 -3.3390 310° West 499 574 32,000  Level FlightAware ADS-B
Sat 08:59:26 AM 54.1910 -3.4690 310° West 499 574 32,000  Level FlightAware ADS-B
Sat 09:00:13 AM 54.2820 -3.6540 310° West 498 573 32,000  Level FlightAware ADS-B
Sat 09:00:58 AM 54.3480 -3.7900 310° West 497 572 32,000  Level FlightAware ADS-B
Sat 09:01:33 AM 54.3980 -3.8950 309° West 496 571 32,000  Level FlightAware ADS-B
Sat 09:02:15 AM 54.4440 -3.9890 310° West 497 572 32,000  Level FlightAware ADS-B
Sat 09:02:50 AM 54.4930 -4.0910 310° West 497 572 32,000  Level FlightAware ADS-B
Sat 09:03:38 AM 54.5820 -4.2790 309° West 498 573 32,000  Level FlightAware ADS-B
Sat 09:04:14 AM 54.6340 -4.3890 309° West 497 572 32,000  Level FlightAware ADS-B
Sat 09:05:03 AM 54.7030 -4.5360 309° West 499 574 32,000  Level FlightAware ADS-B
Sat 09:05:38 AM 54.7410 -4.6170 309° West 499 574 32,000  Level FlightAware ADS-B
Sat 09:06:26 AM 54.8050 -4.7540 309° West 499 574 32,000  Level FlightAware ADS-B
Sat 09:07:05 AM 54.8600 -4.8730 309° West 500 575 32,000  Level FlightAware ADS-B
Sat 09:07:40 AM 54.9320 -5.0290 309° West 498 573 32,000  Level FlightAware ADS-B
Sat 09:08:24 AM 54.9950 -5.1660 309° West 496 571 32,000  Level FlightAware ADS-B
Sat 09:09:08 AM 55.0570 -5.3020 309° West 494 568 32,000  Level FlightAware ADS-B
Sat 09:09:39 AM 55.0860 -5.3650 309° West 494 568 32,000  Level FlightAware ADS-B
Sat 09:10:22 AM 55.1430 -5.4910 308° West 494 568 32,000  Level FlightAware ADS-B
Sat 09:11:31 AM 55.2580 -5.7490 308° West 495 570 32,000  Level FlightAware ADS-B
Sat 09:12:12 AM 55.3150 -5.8750 309° West 495 570 32,000  Level FlightAware ADS-B
Sat 09:12:56 AM 55.3780 -6.0180 308° West 495 570 32,000  Level FlightAware ADS-B
Sat 09:13:32 AM 55.4190 -6.1110 308° West 496 571 32,000  Level FlightAware ADS-B
Sat 09:14:27 AM 55.4880 -6.2680 308° West 496 571 32,000  Level FlightAware ADS-B
Sat 09:15:37 AM 55.5850 -6.4920 308° West 492 566 32,000  Level FlightAware ADS-B
Sat 09:16:15 AM 55.6550 -6.6550 307° West 492 566 32,000  Level FlightAware ADS-B
Sat 09:16:55 AM 55.7110 -6.7850 307° West 492 566 32,000  Level FlightAware ADS-B
Sat 09:17:36 AM 55.7670 -6.9150 307° West 491 565 32,000  Level FlightAware ADS-B
Sat 09:18:15 AM 55.8210 -7.0440 307° West 489 563 32,000  Level FlightAware ADS-B
Sat 09:19:00 AM 55.8830 -7.1890 307° West 488 562 32,000  Level FlightAware ADS-B
Sat 09:19:45 AM 55.9430 -7.3320 307° West 492 566 32,000  Level FlightAware ADS-B
Sat 09:20:20 AM 55.9890 -7.4420 307° West 492 566 32,000  Level FlightAware ADS-B
Sat 09:21:06 AM 56.0540 -7.5990 307° West 491 565 32,000  Level FlightAware ADS-B
Sat 09:21:47 AM 56.1090 -7.7320 307° West 489 563 32,000  Level FlightAware ADS-B
Sat 09:22:30 AM 56.1520 -7.8360 307° West 487 560 32,000  Level FlightAware ADS-B
Sat 09:23:24 AM 56.2210 -8.0050 306° West 486 559 32,000  Level FlightAware ADS-B
Sat 09:24:04 AM 56.2720 -8.1320 306° West 483 556 32,000  Level FlightAware ADS-B
Sat 09:24:49 AM 56.3360 -8.2890 306° West 487 560 32,000  Level FlightAware ADS-B
Sat 09:25:34 AM 56.3900 -8.4260 305° West 483 556 32,000  Level FlightAware ADS-B
Sat 09:26:14 AM 56.4620 -8.6060 306° West 482 555 32,000  Level FlightAware ADS-B
Sat 09:26:54 AM 56.5160 -8.7410 306° West 481 554 32,000  Level FlightAware ADS-B
Sat 09:27:39 AM 56.5740 -8.8890 305° West 481 554 32,000  Level FlightAware ADS-B
Sat 09:28:14 AM 56.6210 -9.0090 305° West 480 552 32,000  Level FlightAware ADS-B
Sat 09:29:04 AM 56.6820 -9.1660 305° West 479 551 32,000  Level FlightAware ADS-B
Sat 09:29:41 AM 56.7230 -9.2720 305° West 479 551 32,000  Level FlightAware ADS-B
Sat 09:30:31 AM 56.7730 -9.4030 305° West 483 556 32,000  Level FlightAware ADS-B
Sat 09:31:12 AM 56.8290 -9.5480 305° West 482 555 32,000  Level FlightAware ADS-B
Sat 09:32:01 AM 56.8870 -9.7020 305° West 481 554 32,000  Level FlightAware ADS-B
Sat 09:34:00 AM 57.0424 -10.0574 309° West  Level Estimated
Sat 09:34:47 AM 57.1050 -10.3400 309° West 481 554 32,000  Level FlightAware ADS-B
Sat 09:35:22 AM 57.1300 -10.4500 293° West 481 554 32,000  Level FlightAware ADS-B
Sat 09:36:10 AM 57.1660 -10.6040 293° West 481 554 32,000  Level FlightAware ADS-B
Sat 09:36:54 AM 57.2020 -10.7450 295° West 480 552 32,000  Level FlightAware ADS-B
Sat 09:37:35 AM 57.2420 -10.9030 295° West 483 556 32,000  Level FlightAware ADS-B
Sat 09:38:23 AM 57.2790 -11.0570 294° West 483 556 32,000  Level FlightAware ADS-B
Sat 09:39:00 AM 57.3070 -11.1760 294° West 483 556 32,000  Level FlightAware ADS-B
Sat 09:39:48 AM 57.3450 -11.3300 295° West 483 556 32,000  Level FlightAware ADS-B
Sat 09:40:25 AM 57.3730 -11.4490 294° West 483 556 32,000  Level FlightAware ADS-B
Sat 09:41:01 AM 57.4010 -11.5650 294° West 483 556 32,000  Level FlightAware ADS-B
Sat 09:42:03 AM 57.4490 -11.7650 294° West 483 556 32,000  Level FlightAware ADS-B
Sat 09:42:39 AM 57.4760 -11.8810 293° West 483 556 32,000  Level FlightAware ADS-B
Sat 09:43:28 AM 57.5140 -12.0400 294° West 483 556 32,000  Level FlightAware ADS-B
Sat 09:44:03 AM 57.5410 -12.1530 294° West 483 556 32,000  Level FlightAware ADS-B
Sat 09:44:39 AM 57.5690 -12.2690 294° West 483 556 32,000  Level FlightAware ADS-B
Sat 09:45:16 AM 57.5980 -12.3890 294° West 483 556 32,000  Level FlightAware ADS-B
Sat 09:46:05 AM 57.6350 -12.5480 294° West 483 556 32,000  Level FlightAware ADS-B
Sat 09:46:43 AM 57.6650 -12.6710 295° West 483 556 32,000  Level FlightAware ADS-B
Sat 09:49:00 AM 57.8344 -13.1027 307° West  Level Estimated
Sat 09:50:00 AM 57.9081 -13.2930 306° West  Level Estimated
Sat 09:51:00 AM 57.9816 -13.4841 306° West  Level Estimated
Sat 09:52:00 AM 58.0548 -13.6760 306° West  Level Estimated
Sat 09:53:00 AM 58.1289 -13.8720 306° West  Level Estimated
Sat 09:54:00 AM 58.2027 -14.0688 305° West  Level Estimated
Sat 09:55:00 AM 58.2762 -14.2664 305° West  Level Estimated
Sat 09:56:00 AM 58.3494 -14.4649 305° West  Level Estimated
Sat 09:57:00 AM 58.4223 -14.6642 305° West  Level Estimated
Sat 09:58:00 AM 58.4949 -14.8643 305° West  Level Estimated
Sat 09:59:00 AM 58.5672 -15.0652 305° West  Level Estimated
Sat 10:00:00 AM 58.6392 -15.2670 304° West  Level Estimated
Sat 10:01:00 AM 58.7108 -15.4696 304° West  Level Estimated
Sat 10:02:00 AM 58.7822 -15.6730 304° West  Level Estimated
Sat 10:03:00 AM 58.8532 -15.8773 304° West  Level Estimated
Sat 10:04:00 AM 58.9238 -16.0824 304° West  Level Estimated
Sat 10:05:00 AM 58.9942 -16.2883 304° West  Level Estimated
Sat 10:06:00 AM 59.0642 -16.4951 303° West  Level Estimated
Sat 10:07:00 AM 59.1339 -16.7027 303° West  Level Estimated
Sat 10:08:00 AM 59.2033 -16.9112 303° West  Level Estimated
Sat 10:09:00 AM 59.2723 -17.1205 303° West  Level Estimated
Sat 10:10:00 AM 59.3410 -17.3307 303° West  Level Estimated
Sat 10:11:00 AM 59.4094 -17.5417 303° West  Level Estimated
Sat 10:12:00 AM 59.4774 -17.7535 302° West  Level Estimated
Sat 10:13:00 AM 59.5451 -17.9663 302° West  Level Estimated
Sat 10:14:00 AM 59.6124 -18.1798 302° West  Level Estimated
Sat 10:15:00 AM 59.6794 -18.3943 302° West  Level Estimated
Sat 10:16:00 AM 59.7460 -18.6095 302° West  Level Estimated
Sat 10:16:34 AM 59.0000 -20.0000 296° West 484 557 32,000  Level ETMS Enhanced Traffic Management System
Sat 10:17:00 AM 59.8122 -18.8257 301° West  Level Estimated
Sat 10:18:00 AM 59.8782 -19.0427 301° West  Level Estimated
Sat 10:19:00 AM 59.9437 -19.2605 301° West  Level Estimated
Sat 10:20:00 AM 60.0089 -19.4793 301° West  Level Estimated
Sat 10:21:00 AM 60.0737 -19.6988 301° West  Level Estimated
Sat 10:22:00 AM 59.3470 -21.4213 295° West 484 557 32,000  Level FlightAware Transoceanic
Sat 10:23:00 AM 59.4033 -21.6610 295° West 484 557 32,000  Level FlightAware Transoceanic
Sat 10:24:00 AM 59.4592 -21.9015 294° West 484 557 32,000  Level FlightAware Transoceanic
Sat 10:25:00 AM 59.5146 -22.1428 294° West 484 557 32,000  Level FlightAware Transoceanic
Sat 10:26:00 AM 59.5696 -22.3848 294° West 484 557 32,000  Level FlightAware Transoceanic
Sat 10:27:00 AM 59.6241 -22.6277 294° West 484 557 32,000  Level FlightAware Transoceanic
Sat 10:28:00 AM 59.6782 -22.8713 294° West 484 557 32,000  Level FlightAware Transoceanic
Sat 10:29:00 AM 59.7319 -23.1157 293° West 484 557 32,000  Level FlightAware Transoceanic
Sat 10:30:00 AM 59.7850 -23.3609 293° West 484 557 32,000  Level FlightAware Transoceanic
Sat 10:31:00 AM 59.8378 -23.6069 293° West 484 557 32,000  Level FlightAware Transoceanic
Sat 10:32:00 AM 59.8900 -23.8537 293° West 484 557 32,000  Level FlightAware Transoceanic
Sat 10:33:00 AM 59.9418 -24.1012 293° West 484 557 32,000  Level FlightAware Transoceanic
Sat 10:34:00 AM 59.9931 -24.3495 292° West 484 557 32,000  Level FlightAware Transoceanic
Sat 10:35:00 AM 60.0440 -24.5986 292° West 484 557 32,000  Level FlightAware Transoceanic
Sat 10:36:00 AM 60.0944 -24.8484 292° West 484 557 32,000  Level FlightAware Transoceanic
Sat 10:37:00 AM 60.1443 -25.0991 292° West 484 557 32,000  Level FlightAware Transoceanic
Sat 10:38:00 AM 60.1938 -25.3504 291° West 484 557 32,000  Level FlightAware Transoceanic
Sat 10:39:00 AM 60.2427 -25.6025 291° West 484 557 32,000  Level FlightAware Transoceanic
Sat 10:40:00 AM 60.2912 -25.8554 291° West 484 557 32,000  Level FlightAware Transoceanic
Sat 10:41:00 AM 60.3392 -26.1090 291° West 484 557 32,000  Level FlightAware Transoceanic
Sat 10:42:00 AM 60.3868 -26.3634 291° West 484 557 32,000  Level FlightAware Transoceanic
Sat 10:43:00 AM 60.4338 -26.6185 290° West 484 557 32,000  Level FlightAware Transoceanic
Sat 10:44:00 AM 60.4804 -26.8743 290° West 484 557 32,000  Level FlightAware Transoceanic
Sat 10:45:00 AM 60.5264 -27.1309 290° West 484 557 32,000  Level FlightAware Transoceanic
Sat 10:46:00 AM 60.5720 -27.3881 290° West 484 557 32,000  Level FlightAware Transoceanic
Sat 10:47:00 AM 60.6171 -27.6462 289° West 484 557 32,000  Level FlightAware Transoceanic
Sat 10:48:00 AM 60.6616 -27.9049 289° West 484 557 32,000  Level FlightAware Transoceanic
Sat 10:49:00 AM 60.7057 -28.1643 289° West 484 557 32,000  Level FlightAware Transoceanic
Sat 10:50:00 AM 60.7493 -28.4245 289° West 484 557 32,000  Level FlightAware Transoceanic
Sat 10:51:00 AM 60.7923 -28.6854 289° West 484 557 32,000  Level FlightAware Transoceanic
Sat 10:52:00 AM 60.8349 -28.9469 288° West 484 557 32,000  Level FlightAware Transoceanic
Sat 10:53:00 AM 60.8769 -29.2092 288° West 484 557 32,000  Level FlightAware Transoceanic
Sat 10:54:00 AM 60.9185 -29.4721 288° West 484 557 32,000  Level FlightAware Transoceanic
Sat 10:55:00 AM 60.9595 -29.7357 288° West 484 557 32,000  Level FlightAware Transoceanic
Sat 10:56:00 AM 60.9979 -29.9861 288° West  Level FlightAware Approximate
Sat 10:57:00 AM 61.0358 -30.2370 287° West  Level FlightAware Approximate
Sat 10:58:00 AM 61.0314 -30.2245 286° West  Level FlightAware Approximate
Sat 10:59:00 AM 61.0663 -30.4776 286° West  Level FlightAware Approximate
Sat 11:00:00 AM 61.1007 -30.7313 286° West  Level FlightAware Approximate
Sat 11:01:00 AM 61.1347 -30.9855 286° West  Level FlightAware Approximate
Sat 11:02:00 AM 61.1681 -31.2402 285° West  Level FlightAware Approximate
Sat 11:03:00 AM 61.2011 -31.4955 285° West  Level FlightAware Approximate
Sat 11:04:00 AM 61.2336 -31.7513 285° West  Level FlightAware Approximate
Sat 11:05:00 AM 61.2656 -32.0076 285° West  Level FlightAware Approximate
Sat 11:06:00 AM 61.2972 -32.2645 284° West  Level FlightAware Approximate
Sat 11:07:00 AM 61.3282 -32.5219 284° West  Level FlightAware Approximate
Sat 11:08:00 AM 61.3588 -32.7797 284° West  Level FlightAware Approximate
Sat 11:09:00 AM 61.3888 -33.0381 284° West  Level FlightAware Approximate
Sat 11:10:00 AM 61.4184 -33.2970 284° West  Level FlightAware Approximate
Sat 11:11:00 AM 61.4475 -33.5563 283° West  Level FlightAware Approximate
Sat 11:12:00 AM 61.4761 -33.8162 283° West  Level FlightAware Approximate
Sat 11:13:00 AM 61.5042 -34.0765 283° West  Level FlightAware Approximate
Sat 11:14:00 AM 61.5318 -34.3373 283° West  Level FlightAware Approximate
Sat 11:15:00 AM 61.5589 -34.5985 282° West  Level FlightAware Approximate
Sat 11:16:00 AM 61.5855 -34.8602 282° West  Level FlightAware Approximate
Sat 11:17:00 AM 61.6116 -35.1223 282° West  Level FlightAware Approximate
Sat 11:18:00 AM 61.6372 -35.3849 282° West  Level FlightAware Approximate
Sat 11:19:00 AM 61.6623 -35.6479 281° West  Level FlightAware Approximate
Sat 11:20:00 AM 61.6869 -35.9113 281° West  Level FlightAware Approximate
Sat 11:21:00 AM 61.7110 -36.1752 281° West  Level FlightAware Approximate
Sat 11:22:00 AM 61.7346 -36.4394 281° West  Level FlightAware Approximate
Sat 11:23:00 AM 61.7577 -36.7041 281° West  Level FlightAware Approximate
Sat 11:24:00 AM 61.7802 -36.9691 280° West  Level FlightAware Approximate
Sat 11:25:00 AM 61.8023 -37.2345 280° West  Level FlightAware Approximate
Sat 11:26:00 AM 61.8238 -37.5003 280° West  Level FlightAware Approximate
Sat 11:27:00 AM 61.8448 -37.7665 280° West  Level FlightAware Approximate
Sat 11:28:00 AM 61.8653 -38.0330 279° West  Level FlightAware Approximate
Sat 11:29:00 AM 61.8853 -38.2999 279° West  Level FlightAware Approximate
Sat 11:30:00 AM 61.9048 -38.5672 279° West  Level FlightAware Approximate
Sat 11:31:00 AM 61.9238 -38.8347 279° West  Level FlightAware Approximate
Sat 11:32:00 AM 61.9422 -39.1026 278° West  Level FlightAware Approximate
Sat 11:33:00 AM 61.9601 -39.3708 278° West  Level FlightAware Approximate
Sat 11:34:00 AM 61.9775 -39.6394 278° West  Level FlightAware Approximate
Sat 11:35:00 AM 61.9944 -39.9082 278° West  Level FlightAware Approximate
Sat 11:36:00 AM 62.0233 -40.1717 286° West  Level FlightAware Approximate
Sat 11:37:00 AM 62.0583 -40.4330 286° West  Level FlightAware Approximate
Sat 11:38:00 AM 62.0928 -40.6948 286° West  Level FlightAware Approximate
Sat 11:39:00 AM 62.1269 -40.9573 286° West  Level FlightAware Approximate
Sat 11:40:00 AM 62.1604 -41.2203 285° West  Level FlightAware Approximate
Sat 11:41:00 AM 62.1934 -41.4839 285° West  Level FlightAware Approximate
Sat 11:42:00 AM 62.2259 -41.7481 285° West  Level FlightAware Approximate
Sat 11:43:00 AM 62.2579 -42.0128 285° West  Level FlightAware Approximate
Sat 11:44:00 AM 62.2894 -42.2781 284° West  Level FlightAware Approximate
Sat 11:45:00 AM 62.3204 -42.5439 284° West  Level FlightAware Approximate
Sat 11:46:00 AM 62.3509 -42.8103 284° West  Level FlightAware Approximate
Sat 11:47:00 AM 62.3809 -43.0773 284° West  Level FlightAware Approximate
Sat 11:48:00 AM 62.4111 -43.3443 284° West  Level FlightAware Approximate
Sat 11:49:00 AM 62.4420 -43.6113 284° West  Level FlightAware Approximate
Sat 11:50:00 AM 62.4724 -43.8788 284° West  Level FlightAware Approximate
Sat 11:51:00 AM 62.5023 -44.1469 284° West  Level FlightAware Approximate
Sat 11:52:00 AM 62.5317 -44.4155 283° West  Level FlightAware Approximate
Sat 11:53:00 AM 62.5606 -44.6846 283° West  Level FlightAware Approximate
Sat 11:54:00 AM 62.5888 -44.9543 282° West  Level FlightAware Approximate
Sat 11:55:00 AM 62.6158 -45.2248 282° West  Level FlightAware Approximate
Sat 11:56:00 AM 62.6422 -45.4959 282° West  Level FlightAware Approximate
Sat 11:57:00 AM 62.6682 -45.7674 282° West  Level FlightAware Approximate
Sat 11:58:00 AM 62.6936 -46.0394 282° West  Level FlightAware Approximate
Sat 11:59:00 AM 62.7184 -46.3118 281° West  Level FlightAware Approximate
Sat 12:00:00 PM 62.7428 -46.5847 281° West  Level FlightAware Approximate
Sat 12:01:00 PM 62.7666 -46.8581 281° West  Level FlightAware Approximate
Sat 12:02:00 PM 62.7899 -47.1319 281° West  Level FlightAware Approximate
Sat 12:03:00 PM 62.8126 -47.4061 280° West  Level FlightAware Approximate
Sat 12:04:00 PM 62.8348 -47.6807 280° West  Level FlightAware Approximate
Sat 12:05:00 PM 62.8565 -47.9558 280° West  Level FlightAware Approximate
Sat 12:06:00 PM 62.8777 -48.2312 280° West  Level FlightAware Approximate
Sat 12:07:00 PM 62.8983 -48.5071 279° West  Level FlightAware Approximate
Sat 12:07:46 PM 62.9850 -49.4940 279° West 472 543 32,000  Level FlightAware ADS-B
Sat 12:08:00 PM 62.9183 -48.7833 279° West  Level FlightAware Approximate
Sat 12:08:30 PM 62.9970 -49.6800 278° West 467 537 32,000  Level FlightAware ADS-B
Sat 12:09:25 PM 63.0100 -49.8860 278° West 463 533 32,000  Level FlightAware ADS-B
Sat 12:10:06 PM 63.0200 -50.0910 276° West 460 529 32,000  Level FlightAware ADS-B
Sat 12:10:43 PM 63.0260 -50.2650 274° West 462 532 32,000  Level FlightAware ADS-B
Sat 12:11:35 PM 63.0360 -50.5610 274° West 459 528 32,000  Level FlightAware ADS-B
Sat 12:12:13 PM 63.0410 -50.7440 274° West 451 519 32,000  Level FlightAware ADS-B
Sat 12:12:59 PM 63.0470 -50.9480 274° West 447 514 32,000  Level FlightAware ADS-B
Sat 12:13:39 PM 63.0520 -51.1290 274° West 445 512 32,000  Level FlightAware ADS-B
Sat 12:14:21 PM 63.0570 -51.3220 273° West 443 510 32,000  Level FlightAware ADS-B
Sat 12:15:05 PM 63.0620 -51.5190 273° West 440 506 32,000  Level FlightAware ADS-B
Sat 12:16:12 PM 63.0680 -51.7410 274° West 437 503 32,000  Level FlightAware ADS-B
Sat 12:16:50 PM 63.0710 -51.9110 272° West 433 498 32,000  Level FlightAware ADS-B
Sat 12:17:52 PM 63.0780 -52.1990 273° West 433 498 32,000  Level FlightAware ADS-B
Sat 12:18:34 PM 63.0810 -52.3930 272° West 434 499 32,000  Level FlightAware ADS-B
Sat 12:19:15 PM 63.0850 -52.6250 272° West 432 497 32,000  Level FlightAware ADS-B
Sat 12:19:57 PM 63.0880 -52.8060 272° West 429 494 32,000  Level FlightAware ADS-B
Sat 12:20:37 PM 63.0910 -52.9810 272° West 428 493 32,000  Level FlightAware ADS-B
Sat 12:21:18 PM 63.0930 -53.1630 271° West 428 493 32,000  Level FlightAware ADS-B
Sat 12:21:55 PM 63.0950 -53.3150 272° West 427 491 32,000  Level FlightAware ADS-B
Sat 12:22:52 PM 63.0980 -53.5180 272° West 424 488 32,000  Level FlightAware ADS-B
Sat 12:23:36 PM 63.0990 -53.7040 271° West 421 484 32,000  Level FlightAware ADS-B
Sat 12:24:22 PM 63.1010 -53.8970 271° West 420 483 32,000  Level FlightAware ADS-B
Sat 12:25:49 PM 63.1020 -54.2450 271° West 422 486 32,000  Level FlightAware ADS-B
Sat 12:26:25 PM 63.1020 -54.3770 270° West 422 486 32,000  Level FlightAware ADS-B
Sat 12:27:12 PM 63.1020 -54.5490 270° West 422 486 32,000  Level FlightAware ADS-B
Sat 12:27:48 PM 63.1020 -54.6810 270° West 422 486 32,000  Level FlightAware ADS-B
Sat 12:28:36 PM 63.1020 -54.8580 270° West 422 486 32,000  Level FlightAware ADS-B
Sat 12:29:12 PM 63.1020 -54.9900 270° West 422 486 32,000  Level FlightAware ADS-B
Sat 12:30:00 PM 63.1020 -55.1660 270° West 422 486 32,000  Level FlightAware ADS-B
Sat 12:30:37 PM 63.1020 -55.3010 270° West 422 486 32,000  Level FlightAware ADS-B
Sat 12:31:26 PM 63.1020 -55.4810 270° West 422 486 32,000  Level FlightAware ADS-B
Sat 12:32:02 PM 63.1020 -55.6130 270° West 422 486 32,000  Level FlightAware ADS-B
Sat 12:33:03 PM 63.1020 -55.8370 270° West 422 486 32,000  Level FlightAware ADS-B
Sat 12:33:42 PM 63.1020 -55.9800 270° West 422 486 32,000  Level FlightAware ADS-B
Sat 12:34:19 PM 63.1020 -56.1160 270° West 422 486 32,000  Level FlightAware ADS-B
Sat 12:35:08 PM 63.1020 -56.2960 270° West 422 486 32,000  Level FlightAware ADS-B
Sat 12:35:47 PM 63.1167 -56.8500 270° West 430 495 32,000  Level Gander Center
Sat 12:36:47 PM 63.1167 -57.1500 270° West 430 495 32,000  Level Gander Center
Sat 12:37:47 PM 63.1000 -57.4000 262° West 430 495 32,000  Level Gander Center
Sat 12:38:47 PM 63.1167 -57.6500 278° West 430 495 32,000  Level Gander Center
Sat 12:39:18 PM 63.1000 -57.7000 234° Southwest 430 495 32,000  Level Montreal Center
Sat 12:40:18 PM 63.0833 -57.9667 262° West 430 495 32,000  Level Montreal Center
Sat 12:41:18 PM 63.0833 -58.2333 270° West 430 495 32,000  Level Montreal Center
Sat 12:42:18 PM 63.0667 -58.5167 263° West 440 506 32,000  Level Montreal Center
Sat 12:43:18 PM 63.0667 -58.7833 270° West 440 506 32,000  Level Montreal Center
Sat 12:44:18 PM 63.0667 -59.0500 270° West 440 506 32,000  Level Montreal Center
Sat 12:45:18 PM 63.0500 -59.3333 263° West 440 506 32,000  Level Montreal Center
Sat 12:46:18 PM 63.0500 -59.6000 270° West 450 518 32,000  Level Montreal Center
Sat 12:47:18 PM 63.0333 -59.8667 262° West 450 518 32,000  Level Montreal Center
Sat 12:48:18 PM 63.0333 -60.1667 270° West 450 518 32,000  Level Montreal Center
Sat 12:49:18 PM 63.0333 -60.4000 270° West 460 529 32,000  Level Montreal Center
Sat 12:50:18 PM 63.0500 -60.6833 278° West 450 518 32,000  Level Montreal Center
Sat 12:51:18 PM 63.0333 -60.9500 262° West 450 518 32,000  Level Montreal Center
Sat 12:52:18 PM 63.0500 -61.2500 277° West 450 518 32,000  Level Montreal Center
Sat 12:53:18 PM 63.0500 -61.5167 270° West 450 518 32,000  Level Montreal Center
Sat 12:54:18 PM 63.0333 -61.7833 262° West 460 529 32,000  Level Montreal Center
Sat 12:55:18 PM 63.0500 -62.0833 277° West 460 529 32,000  Level Montreal Center
Sat 12:56:18 PM 63.0333 -62.3500 262° West 460 529 32,000  Level Montreal Center
Sat 12:57:18 PM 63.0333 -62.6833 270° West 460 529 32,000 600 Level Montreal Center
Sat 12:58:18 PM 63.0333 -62.9500 270° West 460 529 33,200 1,050 Climbing Montreal Center
Sat 12:59:18 PM 63.0333 -63.2167 270° West 450 518 34,100 900 Climbing Montreal Center
Sat 01:00:18 PM 63.0167 -63.4833 262° West 450 518 35,000 750 Climbing Montreal Center
Sat 01:01:18 PM 63.0167 -63.7333 270° West 450 518 35,600 400 Climbing Montreal Center
Sat 01:02:18 PM 62.9833 -64.0500 257° West 450 518 35,800 200 Climbing Montreal Center
Sat 01:03:18 PM 62.9667 -64.3167 262° West 460 529 36,000 100 Climbing Montreal Center
Sat 01:04:18 PM 62.9500 -64.5833 262° West 460 529 36,000  Level Montreal Center
Sat 01:05:18 PM 62.9500 -64.8833 270° West 460 529 36,000  Level Montreal Center
Sat 01:06:18 PM 62.9333 -65.1833 263° West 460 529 36,000  Level Montreal Center
Sat 01:07:18 PM 62.9167 -65.4500 262° West 470 541 36,000  Level Montreal Center
Sat 01:08:18 PM 62.9000 -65.7167 262° West 470 541 36,000  Level Montreal Center
Sat 01:09:18 PM 62.8833 -66.0167 263° West 470 541 36,000  Level Montreal Center
Sat 01:10:18 PM 62.8667 -66.2833 262° West 470 541 36,000  Level Montreal Center
Sat 01:11:18 PM 62.8500 -66.5833 263° West 470 541 36,000  Level Montreal Center
Sat 01:12:18 PM 62.8333 -66.8500 262° West 470 541 36,000  Level Montreal Center
Sat 01:13:18 PM 62.8167 -67.1500 263° West 470 541 36,000  Level Montreal Center
Sat 01:14:18 PM 62.8000 -67.4167 262° West 470 541 36,000  Level Montreal Center
Sat 01:15:18 PM 62.7833 -67.7500 264° West 480 552 36,000  Level Montreal Center
Sat 01:16:18 PM 62.7667 -68.0500 263° West 480 552 36,000  Level Montreal Center
Sat 01:17:18 PM 62.7500 -68.3000 262° West 480 552 36,000  Level Montreal Center
Sat 01:18:18 PM 62.7333 -68.6000 263° West 480 552 36,000  Level Montreal Center
Sat 01:19:18 PM 62.7167 -68.9000 263° West 490 564 36,000  Level Montreal Center
Sat 01:20:18 PM 62.6833 -69.2000 257° West 490 564 36,000  Level Montreal Center
Sat 01:21:18 PM 62.6667 -69.4667 262° West 490 564 36,000  Level Montreal Center
Sat 01:22:18 PM 62.6500 -69.7500 263° West 490 564 36,000  Level Montreal Center
Sat 01:23:18 PM 62.6333 -70.0500 263° West 480 552 36,000  Level Montreal Center
Sat 01:24:18 PM 62.6000 -70.3500 257° West 480 552 36,000  Level Montreal Center
Sat 01:25:18 PM 62.5833 -70.6500 263° West 490 564 36,000  Level Montreal Center
Sat 01:26:18 PM 62.5667 -70.9333 263° West 490 564 36,000  Level Montreal Center
Sat 01:27:18 PM 62.5333 -71.2333 257° West 490 564 36,000  Level Montreal Center
Sat 01:28:18 PM 62.5167 -71.5333 263° West 490 564 36,000  Level Montreal Center
Sat 01:29:18 PM 62.5000 -71.8167 263° West 490 564 36,000  Level Montreal Center
Sat 01:30:18 PM 62.4667 -72.0833 255° West 490 564 36,000  Level Montreal Center
Sat 01:31:18 PM 62.4333 -72.4167 258° West 490 564 36,000  Level Montreal Center
Sat 01:32:18 PM 62.4000 -72.7000 256° West 490 564 36,000  Level Montreal Center
Sat 01:33:18 PM 62.3833 -73.0000 263° West 490 564 36,000  Level Montreal Center
Sat 01:34:18 PM 62.3500 -73.2833 256° West 490 564 36,000  Level Montreal Center
Sat 01:35:18 PM 62.3167 -73.5833 257° West 490 564 36,000  Level Montreal Center
Sat 01:36:18 PM 62.3000 -73.8667 263° West 490 564 36,000  Level Montreal Center
Sat 01:37:18 PM 62.2667 -74.1500 256° West 490 564 36,000  Level Montreal Center
Sat 01:38:18 PM 62.2333 -74.4500 257° West 490 564 36,000  Level Montreal Center
Sat 01:39:18 PM 62.2000 -74.7333 256° West 500 575 36,000  Level Montreal Center
Sat 01:40:18 PM 62.1667 -75.0167 256° West 500 575 36,000  Level Montreal Center
Sat 01:41:18 PM 62.1500 -75.3167 263° West 500 575 36,000  Level Montreal Center
Sat 01:42:18 PM 62.1167 -75.6000 256° West 490 564 36,000  Level Montreal Center
Sat 01:43:18 PM 62.0833 -75.8833 256° West 500 575 36,000  Level Montreal Center
Sat 01:44:18 PM 62.0500 -76.1667 256° West 500 575 36,000  Level Montreal Center
Sat 01:45:18 PM 62.0167 -76.4500 256° West 500 575 36,000  Level Montreal Center
Sat 01:46:18 PM 61.9667 -76.7333 250° West 500 575 36,000  Level Montreal Center
Sat 01:47:18 PM 61.9333 -77.0167 256° West 500 575 36,000  Level Montreal Center
Sat 01:48:18 PM 61.9000 -77.3000 256° West 490 564 36,000  Level Montreal Center
Sat 01:49:18 PM 61.8667 -77.5833 256° West 490 564 36,000  Level Montreal Center
Sat 01:50:18 PM 61.8333 -77.8667 256° West 490 564 36,000  Level Montreal Center
Sat 01:51:18 PM 61.8000 -78.1500 256° West 490 564 36,000  Level Montreal Center
Sat 01:52:18 PM 61.7500 -78.4333 250° West 500 575 36,000  Level Montreal Center
Sat 01:53:18 PM 61.7167 -78.7167 256° West 500 575 36,000  Level Montreal Center
Sat 01:54:18 PM 61.6833 -79.0000 256° West 500 575 36,000  Level Montreal Center
Sat 01:55:18 PM 61.6333 -79.2333 246° West 490 564 36,000  Level Montreal Center
Sat 01:56:18 PM 61.6000 -79.5167 256° West 490 564 36,000  Level Montreal Center
Sat 01:57:18 PM 61.5500 -79.8000 250° West 490 564 36,000  Level Montreal Center
Sat 01:58:18 PM 61.5167 -80.0667 255° West 490 564 36,000  Level Montreal Center
Sat 01:59:18 PM 61.4500 -80.3500 244° Southwest 490 564 36,000  Level Montreal Center
Sat 02:00:18 PM 61.4167 -80.6167 255° West 490 564 36,000  Level Montreal Center
Sat 02:01:18 PM 61.3500 -80.8833 243° Southwest 490 564 36,000  Level Montreal Center
Sat 02:02:18 PM 61.3167 -81.1667 256° West 490 564 36,000  Level Montreal Center
Sat 02:03:18 PM 61.2667 -81.4000 246° West 490 564 36,000  Level Montreal Center
Sat 02:04:18 PM 61.2167 -81.6667 249° West 490 564 36,000  Level Montreal Center
Sat 02:05:18 PM 61.1667 -81.9333 249° West 490 564 36,000  Level Montreal Center
Sat 02:06:18 PM 61.1000 -82.2000 243° Southwest 490 564 36,000  Level Montreal Center
Sat 02:07:18 PM 61.0500 -82.4500 248° West 490 564 36,000  Level Montreal Center
Sat 02:08:18 PM 61.0000 -82.7000 248° West 490 564 36,000  Level Montreal Center
Sat 02:09:18 PM 60.9500 -82.9833 250° West 490 564 36,000  Level Montreal Center
Sat 02:10:18 PM 60.9000 -83.2500 249° West 490 564 36,000  Level Montreal Center
Sat 02:11:18 PM 60.8333 -83.4667 238° Southwest 480 552 36,000  Level Montreal Center
Sat 02:12:18 PM 60.7833 -83.7333 249° West 480 552 36,000  Level Montreal Center
Sat 02:13:18 PM 60.7167 -84.0000 243° Southwest 480 552 36,000  Level Montreal Center
Sat 02:14:18 PM 60.6833 -84.2333 254° West 480 552 36,000  Level Montreal Center
Sat 02:15:18 PM 60.6333 -84.4833 248° West 480 552 36,000  Level Montreal Center
Sat 02:16:18 PM 60.5667 -84.7500 243° Southwest 480 552 36,000  Level Montreal Center
Sat 02:17:18 PM 60.5167 -84.9333 241° Southwest 480 552 36,000  Level Montreal Center
Sat 02:18:42 PM 60.4000 -85.1500 223° Southwest 480 552 36,000  Level Edmonton Center
Sat 02:19:42 PM 60.3500 -85.4000 248° West 470 541 36,000  Level Edmonton Center
Sat 02:20:42 PM 60.2833 -85.6500 242° Southwest 470 541 36,000  Level Edmonton Center
Sat 02:21:42 PM 60.2333 -85.9000 248° West 470 541 36,000  Level Edmonton Center
Sat 02:22:42 PM 60.1833 -86.1167 245° Southwest 470 541 36,000  Level Edmonton Center
Sat 02:23:42 PM 60.1167 -86.3667 242° Southwest 470 541 36,000  Level Edmonton Center
Sat 02:24:42 PM 60.0667 -86.6000 247° West 470 541 36,000  Level Edmonton Center
Sat 02:26:00 PM 59.9757 -86.8736 236° Southwest  Level FlightAware Approximate
Sat 02:26:42 PM 59.9333 -87.1000 236° Southwest 480 552 36,000  Level Edmonton Center
Sat 02:27:42 PM 59.8833 -87.3000 244° Southwest 470 541 36,000  Level Edmonton Center
Sat 02:28:42 PM 59.8167 -87.5333 240° Southwest 470 541 36,000  Level Edmonton Center
Sat 02:29:42 PM 59.7500 -87.7833 242° Southwest 470 541 36,000  Level Edmonton Center
Sat 02:30:42 PM 59.6833 -87.9833 237° Southwest 470 541 36,000  Level Edmonton Center
Sat 02:31:42 PM 59.6333 -88.2333 249° West 460 529 36,000  Level Edmonton Center
Sat 02:32:42 PM 59.5833 -88.4667 247° West 460 529 36,000  Level Edmonton Center
Sat 02:33:42 PM 59.5000 -88.6667 231° Southwest 470 541 36,000  Level Edmonton Center
Sat 02:34:42 PM 59.4500 -88.9000 247° West 460 529 36,000  Level Edmonton Center
Sat 02:35:42 PM 59.3833 -89.1333 241° Southwest 460 529 36,000  Level Edmonton Center
Sat 02:36:42 PM 59.3167 -89.3333 237° Southwest 460 529 36,000  Level Edmonton Center
Sat 02:37:42 PM 59.2500 -89.5833 243° Southwest 460 529 36,000  Level Edmonton Center
Sat 02:38:42 PM 59.1833 -89.7833 237° Southwest 460 529 36,000  Level Edmonton Center
Sat 02:39:42 PM 59.1333 -90.0000 246° West 460 529 36,000  Level Edmonton Center
Sat 02:40:42 PM 59.0500 -90.2167 233° Southwest 460 529 36,000  Level Edmonton Center
Sat 02:41:42 PM 58.9667 -90.4167 231° Southwest 460 529 36,000  Level Edmonton Center
Sat 02:42:42 PM 58.9000 -90.6000 235° Southwest 460 529 36,000  Level Edmonton Center
Sat 02:43:42 PM 58.8167 -90.8167 233° Southwest 460 529 36,000  Level Edmonton Center
Sat 02:44:42 PM 58.7333 -91.0167 231° Southwest 460 529 36,000  Level Edmonton Center
Sat 02:45:42 PM 58.6667 -91.2333 239° Southwest 460 529 36,000  Level Edmonton Center
Sat 02:46:42 PM 58.6000 -91.4333 237° Southwest 460 529 36,000  Level Edmonton Center
Sat 02:47:42 PM 58.5167 -91.6333 231° Southwest 460 529 36,000  Level Edmonton Center
Sat 02:48:42 PM 58.4333 -91.8333 232° Southwest 460 529 36,000  Level Edmonton Center
Sat 02:49:42 PM 58.3667 -92.0167 235° Southwest 460 529 36,000  Level Edmonton Center
Sat 02:50:42 PM 58.2833 -92.2167 232° Southwest 450 518 36,000  Level Edmonton Center
Sat 02:51:42 PM 58.2000 -92.4000 229° Southwest 450 518 36,000  Level Edmonton Center
Sat 02:52:42 PM 58.1333 -92.6000 238° Southwest 450 518 36,000  Level Edmonton Center
Sat 02:53:42 PM 58.0667 -92.7833 236° Southwest 450 518 36,000  Level Edmonton Center
Sat 02:54:42 PM 57.9667 -92.9833 227° Southwest 450 518 36,000  Level Edmonton Center
Sat 02:55:42 PM 57.9000 -93.1667 236° Southwest 450 518 36,000  Level Edmonton Center
Sat 02:56:42 PM 57.8167 -93.3833 234° Southwest 450 518 36,000  Level Edmonton Center
Sat 02:57:42 PM 57.7333 -93.5333 224° Southwest 450 518 36,000  Level Edmonton Center
Sat 02:58:42 PM 57.6500 -93.7500 234° Southwest 450 518 36,000  Level Edmonton Center
Sat 02:59:42 PM 57.5833 -93.9333 236° Southwest 450 518 36,000  Level Edmonton Center
Sat 03:00:42 PM 57.5000 -94.1167 230° Southwest 440 506 36,000  Level Edmonton Center
Sat 03:01:42 PM 57.4333 -94.3000 236° Southwest 450 518 36,000  Level Edmonton Center
Sat 03:02:42 PM 57.3667 -94.5167 240° Southwest 450 518 36,000  Level Winnipeg Center
Sat 03:03:42 PM 57.2833 -94.7000 230° Southwest 450 518 36,000  Level Winnipeg Center
Sat 03:04:42 PM 57.2000 -94.8667 227° Southwest 450 518 36,000  Level Winnipeg Center
Sat 03:05:42 PM 57.1333 -95.0500 236° Southwest 450 518 36,000  Level Winnipeg Center
Sat 03:06:42 PM 57.0500 -95.2167 227° Southwest 450 518 36,000  Level Winnipeg Center
Sat 03:07:42 PM 56.9667 -95.4000 230° Southwest 460 529 36,000  Level Winnipeg Center
Sat 03:08:42 PM 56.8833 -95.5833 230° Southwest 460 529 36,000  Level Winnipeg Center
Sat 03:09:42 PM 56.8000 -95.7667 230° Southwest 460 529 36,000  Level Winnipeg Center
Sat 03:10:42 PM 56.7167 -95.9333 228° Southwest 460 529 36,000  Level Winnipeg Center
Sat 03:11:42 PM 56.6167 -96.1167 225° Southwest 460 529 36,000  Level Winnipeg Center
Sat 03:12:42 PM 56.5500 -96.3000 237° Southwest 460 529 36,000  Level Winnipeg Center
Sat 03:13:42 PM 56.4667 -96.4833 231° Southwest 460 529 36,000  Level Winnipeg Center
Sat 03:14:42 PM 56.3833 -96.6667 231° Southwest 460 529 36,000  Level Winnipeg Center
Sat 03:15:42 PM 56.3000 -96.8167 225° Southwest 460 529 36,000  Level Winnipeg Center
Sat 03:16:42 PM 56.2167 -97.0000 231° Southwest 460 529 36,000  Level Winnipeg Center
Sat 03:17:42 PM 56.1333 -97.1500 225° Southwest 450 518 36,000  Level Winnipeg Center
Sat 03:18:42 PM 56.0500 -97.3167 228° Southwest 450 518 36,000  Level Winnipeg Center
Sat 03:19:42 PM 55.9667 -97.5000 231° Southwest 450 518 36,000  Level Winnipeg Center
Sat 03:20:42 PM 55.8833 -97.6833 231° Southwest 450 518 36,000  Level Winnipeg Center
Sat 03:23:00 PM 55.6833 -98.0333 225° Southwest 440 506 36,000  Level Winnipeg Center
Sat 03:24:00 PM 55.6000 -98.2000 229° Southwest 450 518 36,000  Level Winnipeg Center
Sat 03:25:00 PM 55.5167 -98.3833 231° Southwest 450 518 36,000  Level Winnipeg Center
Sat 03:26:00 PM 55.4333 -98.5333 226° Southwest 450 518 36,000  Level Winnipeg Center
Sat 03:27:00 PM 55.3333 -98.7000 224° Southwest 450 518 36,000  Level Winnipeg Center
Sat 03:28:00 PM 55.2500 -98.8500 226° Southwest 450 518 36,000  Level Winnipeg Center
Sat 03:29:00 PM 55.1667 -98.9833 222° Southwest 450 518 36,000  Level Winnipeg Center
Sat 03:30:00 PM 55.0833 -99.1500 229° Southwest 450 518 36,000  Level Winnipeg Center
Sat 03:31:00 PM 55.0000 -99.3000 226° Southwest 450 518 36,000  Level Winnipeg Center
Sat 03:32:00 PM 54.9167 -99.4667 229° Southwest 450 518 36,000  Level Winnipeg Center
Sat 03:33:00 PM 54.8167 -99.6333 224° Southwest 450 518 36,000  Level Winnipeg Center
Sat 03:34:00 PM 54.7333 -99.7833 226° Southwest 450 518 36,000  Level Winnipeg Center
Sat 03:35:00 PM 54.6500 -99.9500 229° Southwest 450 518 36,000  Level Winnipeg Center
Sat 03:36:00 PM 54.5667 -100.1167 229° Southwest 450 518 36,000  Level Winnipeg Center
Sat 03:37:00 PM 54.4667 -100.2500 218° Southwest 450 518 36,000  Level Winnipeg Center
Sat 03:42:56 PM 53.9590 -101.1280 218° Southwest 452 520 36,000  Level FlightAware ADS-B
Sat 03:43:33 PM 53.9050 -101.2390 230° Southwest 452 520 36,000  Level FlightAware ADS-B
Sat 03:44:13 PM 53.8540 -101.3450 231° Southwest 453 521 36,000  Level FlightAware ADS-B
Sat 03:44:59 PM 53.7860 -101.4830 230° Southwest 454 522 36,000  Level FlightAware ADS-B
Sat 03:45:39 PM 53.7360 -101.5840 230° Southwest 456 525 36,000  Level FlightAware ADS-B
Sat 03:46:15 PM 53.6860 -101.6840 230° Southwest 456 525 36,000  Level FlightAware ADS-B
Sat 03:46:43 PM 53.6540 -101.7490 230° Southwest 456 525 36,000  Level FlightAware ADS-B
Sat 03:47:23 PM 53.6080 -101.8410 230° Southwest 456 525 36,000  Level FlightAware ADS-B
Sat 03:48:44 PM 53.5010 -102.0530 230° Southwest 455 524 36,000  Level FlightAware ADS-B
Sat 03:49:27 PM 53.4310 -102.1920 230° Southwest 450 518 36,000  Level FlightAware ADS-B
Sat 03:50:28 PM 53.3610 -102.3310 230° Southwest 450 518 36,000  Level FlightAware ADS-B
Sat 03:51:04 PM 53.3200 -102.4120 230° Southwest 450 518 36,000  Level FlightAware ADS-B
Sat 03:51:40 PM 53.2790 -102.4940 230° Southwest 450 518 36,000  Level FlightAware ADS-B
Sat 03:52:17 PM 53.2370 -102.5780 230° Southwest 450 518 36,000  Level FlightAware ADS-B
Sat 03:52:53 PM 53.1960 -102.6590 230° Southwest 450 518 36,000  Level FlightAware ADS-B
Sat 03:53:38 PM 53.1450 -102.7610 230° Southwest 450 518 36,000  Level FlightAware ADS-B
Sat 03:54:05 PM 53.1140 -102.8220 230° Southwest 450 518 36,000  Level FlightAware ADS-B
Sat 03:54:54 PM 53.0580 -102.9330 230° Southwest 450 518 36,000  Level FlightAware ADS-B
Sat 03:55:30 PM 53.0180 -103.0140 231° Southwest 450 518 36,000  Level FlightAware ADS-B
Sat 03:56:06 PM 52.9770 -103.0950 230° Southwest 450 518 36,000  Level FlightAware ADS-B
Sat 03:56:53 PM 52.9230 -103.2010 230° Southwest 450 518 36,000  Level FlightAware ADS-B
Sat 03:57:33 PM 52.8780 -103.2900 230° Southwest 450 518 36,000  Level FlightAware ADS-B
Sat 03:58:27 PM 52.8160 -103.4120 230° Southwest 450 518 36,000  Level FlightAware ADS-B
Sat 03:59:00 PM 52.6333 -103.7000 230° Southwest 440 506 36,000  Level Winnipeg Center
Sat 04:00:00 PM 52.5667 -103.8500 234° Southwest 440 506 36,000  Level Winnipeg Center
Sat 04:01:00 PM 52.4667 -103.9833 219° Southwest 440 506 36,000  Level Winnipeg Center
Sat 04:02:00 PM 52.3833 -104.1667 233° Southwest 440 506 36,000  Level Winnipeg Center
Sat 04:03:00 PM 52.3167 -104.2833 227° Southwest 440 506 36,000  Level Winnipeg Center
Sat 04:04:00 PM 52.2167 -104.4667 228° Southwest 430 495 36,000  Level Winnipeg Center
Sat 04:05:00 PM 52.1500 -104.5833 227° Southwest 440 506 36,000  Level Winnipeg Center
Sat 04:06:00 PM 52.0500 -104.7333 223° Southwest 440 506 36,000  Level Winnipeg Center
Sat 04:07:00 PM 51.9667 -104.8833 228° Southwest 440 506 36,000  Level Winnipeg Center
Sat 04:08:00 PM 51.9000 -105.0333 234° Southwest 440 506 36,000  Level Winnipeg Center
Sat 04:09:00 PM 51.8167 -105.1833 228° Southwest 440 506 36,000  Level Winnipeg Center
Sat 04:14:09 PM 51.4720 -105.7680 228° Southwest 438 504 36,000  Level FlightAware ADS-B
Sat 04:14:52 PM 51.4230 -105.8500 226° Southwest 438 504 36,000  Level FlightAware ADS-B
Sat 04:16:03 PM 51.3200 -106.0260 227° Southwest 435 501 36,000  Level FlightAware ADS-B
Sat 04:16:41 PM 51.2650 -106.1180 226° Southwest 437 503 36,000  Level FlightAware ADS-B
Sat 04:17:28 PM 51.1860 -106.2500 226° Southwest 437 503 36,000  Level FlightAware ADS-B
Sat 04:18:25 PM 51.0950 -106.4010 226° Southwest 437 503 36,000  Level FlightAware ADS-B
Sat 04:19:02 PM 51.0550 -106.4680 226° Southwest 438 504 36,000  Level FlightAware ADS-B
Sat 04:19:41 PM 50.9940 -106.5680 226° Southwest 439 505 36,000  Level FlightAware ADS-B
Sat 04:20:26 PM 50.9280 -106.6770 226° Southwest 441 507 36,000  Level FlightAware ADS-B
Sat 04:21:06 PM 50.8650 -106.7810 226° Southwest 441 507 36,000  Level FlightAware ADS-B
Sat 04:21:51 PM 50.8240 -106.8470 225° Southwest 440 506 36,000  Level FlightAware ADS-B
Sat 04:22:50 PM 50.7390 -106.9840 226° Southwest 439 505 36,000  Level FlightAware ADS-B
Sat 04:24:05 PM 50.6190 -107.1790 226° Southwest 437 503 36,000  Level FlightAware ADS-B
Sat 04:24:49 PM 50.5520 -107.2870 226° Southwest 438 504 36,000  Level FlightAware ADS-B
Sat 04:25:30 PM 50.4930 -107.3800 225° Southwest 438 504 36,000  Level FlightAware ADS-B
Sat 04:26:09 PM 50.4440 -107.4580 225° Southwest 440 506 36,000  Level FlightAware ADS-B
Sat 04:26:54 PM 50.3860 -107.5500 225° Southwest 442 509 36,000  Level FlightAware ADS-B
Sat 04:27:36 PM 50.3310 -107.6370 225° Southwest 443 510 36,000  Level FlightAware ADS-B
Sat 04:28:08 PM 50.2750 -107.7220 224° Southwest 447 514 36,000  Level FlightAware ADS-B
Sat 04:28:52 PM 50.2090 -107.8150 222° Southwest 446 513 36,000  Level FlightAware ADS-B
Sat 04:29:33 PM 50.1500 -107.8990 222° Southwest 446 513 36,000  Level FlightAware ADS-B
Sat 04:30:11 PM 50.1000 -107.9680 222° Southwest 446 513 36,000  Level FlightAware ADS-B
Sat 04:30:47 PM 50.0530 -108.0340 222° Southwest 446 513 36,000  Level FlightAware ADS-B
Sat 04:31:35 PM 49.9900 -108.1220 222° Southwest 446 513 36,000  Level FlightAware ADS-B
Sat 04:32:11 PM 49.9440 -108.1880 223° Southwest 446 513 36,000  Level FlightAware ADS-B
Sat 04:33:21 PM 49.8520 -108.3150 222° Southwest 446 513 36,000  Level FlightAware ADS-B
Sat 04:34:42 PM 49.7470 -108.4620 222° Southwest 446 513 36,000  Level FlightAware ADS-B
Sat 04:35:18 PM 49.7000 -108.5280 222° Southwest 446 513 36,000  Level FlightAware ADS-B
Sat 04:35:54 PM 49.6530 -108.5930 222° Southwest 446 513 36,000  Level FlightAware ADS-B
Sat 04:36:43 PM 49.5890 -108.6820 222° Southwest 446 513 36,000  Level FlightAware ADS-B
Sat 04:37:20 PM 49.5410 -108.7490 222° Southwest 446 513 36,000  Level FlightAware ADS-B
Sat 04:38:09 PM 49.4770 -108.8370 222° Southwest 446 513 36,000  Level FlightAware ADS-B
Sat 04:38:44 PM 49.4310 -108.9000 222° Southwest 446 513 36,000 657 Level FlightAware ADS-B
Sat 04:39:42 PM 49.0480 -109.1450 203° Southwest 36,800 882 Climbing FlightAware ADS-B
Sat 04:40:26 PM 48.9810 -109.2440 224° Southwest 444 511 37,500 563 Climbing FlightAware ADS-B
Sat 04:41:18 PM 48.9220 -109.3310 224° Southwest 444 511 37,700 133 Climbing FlightAware ADS-B
Sat 04:41:56 PM 48.8740 -109.4010 224° Southwest 444 511 37,700  Level FlightAware ADS-B
Sat 04:42:22 PM 48.8420 -109.4490 225° Southwest 444 511 37,700  Level FlightAware ADS-B
Sat 04:43:03 PM 48.7900 -109.5240 224° Southwest 444 511 37,700 207 Level FlightAware ADS-B
Sat 04:43:49 PM 48.6880 -109.6750 224° Southwest 442 509 38,000 188 Climbing FlightAware ADS-B
Sat 04:44:39 PM 48.6240 -109.7640 223° Southwest 442 509 38,000  Level FlightAware ADS-B
Sat 04:45:15 PM 48.5780 -109.8290 223° Southwest 442 509 38,000  Level FlightAware ADS-B
Sat 04:46:03 PM 48.5170 -109.9150 223° Southwest 442 509 38,000  Level FlightAware ADS-B
Sat 04:46:39 PM 48.4720 -109.9790 223° Southwest 442 509 38,000  Level FlightAware ADS-B
Sat 04:47:27 PM 48.3600 -110.1470 225° Southwest 440 506 38,000  Level FlightAware ADS-B
Sat 04:48:11 PM 48.2940 -110.2410 223° Southwest 443 510 38,000  Level FlightAware ADS-B
Sat 04:48:51 PM 48.2340 -110.3260 223° Southwest 443 510 38,000  Level FlightAware ADS-B
Sat 04:49:27 PM 48.1880 -110.3900 223° Southwest 443 510 38,000  Level FlightAware ADS-B
Sat 04:50:24 PM 48.1160 -110.4920 223° Southwest 443 510 38,000  Level FlightAware ADS-B
Sat 04:51:01 PM 48.0690 -110.5580 223° Southwest 443 510 38,000  Level FlightAware ADS-B
Sat 04:51:37 PM 48.0230 -110.6220 223° Southwest 443 510 38,000  Level FlightAware ADS-B
Sat 04:52:13 PM 47.9770 -110.6850 223° Southwest 443 510 38,000  Level FlightAware ADS-B
Sat 04:53:13 PM 47.9010 -110.7920 223° Southwest 443 510 38,000  Level FlightAware ADS-B
Sat 04:53:49 PM 47.8550 -110.8560 223° Southwest 443 510 38,000  Level FlightAware ADS-B
Sat 04:54:25 PM 47.8090 -110.9190 223° Southwest 443 510 38,000  Level FlightAware ADS-B
Sat 04:55:13 PM 47.7480 -111.0040 223° Southwest 443 510 38,000  Level FlightAware ADS-B
Sat 04:55:50 PM 47.7000 -111.0690 222° Southwest 443 510 38,000  Level FlightAware ADS-B
Sat 04:56:27 PM 47.6530 -111.1350 223° Southwest 443 510 38,000  Level FlightAware ADS-B
Sat 04:57:03 PM 47.6070 -111.1980 223° Southwest 443 510 38,000  Level FlightAware ADS-B
Sat 04:57:51 PM 47.5460 -111.2830 223° Southwest 443 510 38,000  Level FlightAware ADS-B
Sat 04:58:26 PM 47.5020 -111.3440 223° Southwest 443 510 38,000  Level FlightAware ADS-B
Sat 04:59:03 PM 47.4550 -111.4090 223° Southwest 443 510 38,000  Level FlightAware ADS-B
Sat 05:00:11 PM 47.2111 -111.6906 223° Southwest 445 512 38,000  Level Salt Lake Center
Sat 05:01:13 PM 47.0953 -111.8239 218° Southwest 442 509 38,000  Level Salt Lake Center
Sat 05:02:15 PM 46.9969 -111.9356 218° Southwest 446 513 38,000  Level Salt Lake Center
Sat 05:03:16 PM 46.8997 -112.0461 218° Southwest 446 513 38,000  Level Salt Lake Center
Sat 05:04:18 PM 46.8025 -112.1567 218° Southwest 444 511 38,000  Level Salt Lake Center
Sat 05:05:20 PM 46.7050 -112.2656 217° Southwest 443 510 38,000  Level Salt Lake Center
Sat 05:06:22 PM 46.6081 -112.3744 218° Southwest 441 507 38,000  Level Salt Lake Center
Sat 05:07:24 PM 46.4917 -112.5033 217° Southwest 441 507 38,000  Level Salt Lake Center
Sat 05:08:27 PM 46.4031 -112.6031 218° Southwest 442 509 38,000  Level Salt Lake Center
Sat 05:09:28 PM 46.3061 -112.7103 217° Southwest 440 506 38,000  Level Salt Lake Center
Sat 05:10:30 PM 46.1889 -112.8369 217° Southwest 441 507 38,000  Level Salt Lake Center
Sat 05:11:33 PM 46.0914 -112.9442 217° Southwest 441 507 38,000  Level Salt Lake Center
Sat 05:12:35 PM 45.9928 -113.0508 217° Southwest 444 511 38,000  Level Salt Lake Center
Sat 05:13:37 PM 45.8953 -113.1569 217° Southwest 442 509 38,000  Level Salt Lake Center
Sat 05:14:39 PM 45.7972 -113.2633 217° Southwest 443 510 38,000  Level Salt Lake Center
Sat 05:15:41 PM 45.6992 -113.3683 217° Southwest 441 507 38,000  Level Salt Lake Center
Sat 05:16:43 PM 45.5819 -113.4936 217° Southwest 440 506 38,000  Level Salt Lake Center
Sat 05:17:45 PM 45.4839 -113.5969 216° Southwest 439 505 38,000  Level Salt Lake Center
Sat 05:18:47 PM 45.3831 -113.7033 217° Southwest 440 506 38,000  Level Salt Lake Center
Sat 05:19:49 PM 45.2833 -113.8097 217° Southwest 440 506 38,000  Level Salt Lake Center
Sat 05:25:59 PM 44.7220 -114.5270 217° Southwest 427 491 38,000  Level FlightAware ADS-B
Sat 05:26:44 PM 44.6590 -114.6200 226° Southwest 430 495 38,000  Level FlightAware ADS-B
Sat 05:27:24 PM 44.6050 -114.6980 226° Southwest 431 496 38,000  Level FlightAware ADS-B
Sat 05:28:04 PM 44.5490 -114.7800 226° Southwest 432 497 38,000  Level FlightAware ADS-B
Sat 05:28:44 PM 44.4940 -114.8600 226° Southwest 430 495 38,000  Level FlightAware ADS-B
Sat 05:29:26 PM 44.4440 -114.9320 226° Southwest 426 490 38,000  Level FlightAware ADS-B
Sat 05:30:08 PM 44.3790 -115.0260 226° Southwest 424 488 38,000  Level FlightAware ADS-B
Sat 05:30:49 PM 44.3240 -115.1050 226° Southwest 423 487 38,000  Level FlightAware ADS-B
Sat 05:31:28 PM 44.2640 -115.1770 221° Southwest 431 496 38,000  Level FlightAware ADS-B
Sat 05:32:12 PM 44.2000 -115.2590 223° Southwest 419 482 38,000  Level FlightAware ADS-B
Sat 05:32:52 PM 44.1530 -115.3440 232° Southwest 422 486 38,000  Level FlightAware ADS-B
Sat 05:33:38 PM 44.0910 -115.4360 227° Southwest 420 483 38,000  Level FlightAware ADS-B
Sat 05:34:18 PM 44.0390 -115.5120 226° Southwest 422 486 38,000  Level FlightAware ADS-B
Sat 05:35:02 PM 43.9770 -115.5990 225° Southwest 423 487 38,000  Level FlightAware ADS-B
Sat 05:35:39 PM 43.9340 -115.6600 226° Southwest 423 487 38,000  Level FlightAware ADS-B
Sat 05:36:19 PM 43.8730 -115.7460 225° Southwest 422 486 38,000  Level FlightAware ADS-B
Sat 05:37:05 PM 43.8110 -115.8330 225° Southwest 424 488 38,000  Level FlightAware ADS-B
Sat 05:37:40 PM 43.7600 -115.9040 225° Southwest 424 488 38,000  Level FlightAware ADS-B
Sat 05:38:20 PM 43.7050 -115.9800 225° Southwest 424 488 38,000  Level FlightAware ADS-B
Sat 05:38:56 PM 43.6550 -116.0510 226° Southwest 424 488 38,000  Level FlightAware ADS-B
Sat 05:39:40 PM 43.5940 -116.1350 225° Southwest 425 489 38,000  Level FlightAware ADS-B
Sat 05:40:27 PM 43.5260 -116.2160 221° Southwest 432 497 38,000  Level FlightAware ADS-B
Sat 05:41:12 PM 43.4500 -116.2900 215° Southwest 432 497 38,000  Level FlightAware ADS-B
Sat 05:41:46 PM 43.4140 -116.3250 215° Southwest 432 497 38,000  Level FlightAware ADS-B
Sat 05:42:26 PM 43.3420 -116.3950 215° Southwest 432 497 38,000  Level FlightAware ADS-B
Sat 05:43:04 PM 43.2670 -116.4670 215° Southwest 433 498 38,000  Level FlightAware ADS-B
Sat 05:43:54 PM 43.1850 -116.5450 215° Southwest 433 498 38,000  Level FlightAware ADS-B
Sat 05:44:34 PM 43.1190 -116.6090 215° Southwest 437 503 38,000  Level FlightAware ADS-B
Sat 05:45:14 PM 43.0530 -116.6710 214° Southwest 436 502 38,000  Level FlightAware ADS-B
Sat 05:45:59 PM 42.9780 -116.7420 215° Southwest 438 504 38,000  Level FlightAware ADS-B
Sat 05:46:40 PM 42.9090 -116.8070 215° Southwest 436 502 38,000  Level FlightAware ADS-B
Sat 05:47:16 PM 42.8490 -116.8640 215° Southwest 436 502 38,000  Level FlightAware ADS-B
Sat 05:47:55 PM 42.7850 -116.9210 213° Southwest 435 501 38,000  Level FlightAware ADS-B
Sat 05:48:40 PM 42.7080 -116.9890 213° Southwest 435 501 38,000  Level FlightAware ADS-B
Sat 05:49:15 PM 42.6500 -117.0410 213° Southwest 436 502 38,000  Level FlightAware ADS-B
Sat 05:49:55 PM 42.5810 -117.1020 213° Southwest 434 499 38,000  Level FlightAware ADS-B
Sat 05:50:39 PM 42.5070 -117.1670 213° Southwest 432 497 38,000  Level FlightAware ADS-B
Sat 05:51:17 PM 42.4430 -117.2230 213° Southwest 432 497 38,000  Level FlightAware ADS-B
Sat 05:51:53 PM 42.3830 -117.2760 213° Southwest 432 497 38,000  Level FlightAware ADS-B
Sat 05:52:37 PM 42.3100 -117.3410 213° Southwest 432 497 38,000  Level FlightAware ADS-B
Sat 05:53:01 PM 42.2690 -117.3760 212° Southwest 432 497 38,000  Level FlightAware ADS-B
Sat 05:53:47 PM 42.1920 -117.4440 213° Southwest 435 501 38,000  Level FlightAware ADS-B
Sat 05:54:23 PM 42.1320 -117.4960 213° Southwest 432 497 38,000  Level FlightAware ADS-B
Sat 05:55:10 PM 42.0610 -117.5580 213° Southwest 428 493 38,000  Level FlightAware ADS-B
Sat 05:55:50 PM 41.9870 -117.6230 213° Southwest 428 493 38,000  Level FlightAware ADS-B
Sat 05:56:31 PM 41.9180 -117.6820 212° Southwest 430 495 38,000  Level FlightAware ADS-B
Sat 05:57:14 PM 41.8560 -117.7340 212° Southwest 430 495 38,000  Level FlightAware ADS-B
Sat 05:58:01 PM 41.7680 -117.8110 213° Southwest 429 494 38,000  Level FlightAware ADS-B
Sat 05:58:41 PM 41.7000 -117.8700 213° Southwest 429 494 38,000  Level FlightAware ADS-B
Sat 05:59:23 PM 41.6300 -117.9300 213° Southwest 429 494 38,000  Level FlightAware ADS-B
Sat 06:00:05 PM 41.5580 -117.9900 212° Southwest 432 497 38,000  Level FlightAware ADS-B
Sat 06:00:41 PM 41.5020 -118.0380 213° Southwest 434 499 38,000  Level FlightAware ADS-B
Sat 06:01:42 PM 41.4110 -118.1160 213° Southwest 430 495 38,000  Level FlightAware ADS-B
Sat 06:02:23 PM 41.3270 -118.1870 212° Southwest 429 494 38,000  Level FlightAware ADS-B
Sat 06:02:59 PM 41.2670 -118.2370 212° Southwest 431 496 38,000  Level FlightAware ADS-B
Sat 06:03:49 PM 41.1910 -118.3010 212° Southwest 432 497 38,000  Level FlightAware ADS-B
Sat 06:04:25 PM 41.1390 -118.3450 213° Southwest 432 497 38,000  Level FlightAware ADS-B
Sat 06:05:14 PM 41.0680 -118.4030 212° Southwest 432 497 38,000  Level FlightAware ADS-B
Sat 06:05:52 PM 41.0130 -118.4480 212° Southwest 432 497 38,000  Level FlightAware ADS-B
Sat 06:06:38 PM 40.9470 -118.5030 212° Southwest 432 497 38,000  Level FlightAware ADS-B
Sat 06:07:14 PM 40.8950 -118.5460 212° Southwest 432 497 38,000  Level FlightAware ADS-B
Sat 06:08:02 PM 40.8260 -118.6030 212° Southwest 432 497 38,000  Level FlightAware ADS-B
Sat 06:08:36 PM 40.7770 -118.6440 212° Southwest 432 497 38,000  Level FlightAware ADS-B
Sat 06:09:55 PM 40.6630 -118.9240 242° Southwest 426 490 38,000  Level FlightAware ADS-B
Sat 06:10:27 PM 40.6270 -118.9970 237° Southwest 427 491 38,000  Level FlightAware ADS-B
Sat 06:11:05 PM 40.5810 -119.0910 237° Southwest 428 493 38,000  Level FlightAware ADS-B
Sat 06:11:48 PM 40.5360 -119.1840 238° Southwest 428 493 38,000  Level FlightAware ADS-B
Sat 06:12:34 PM 40.4860 -119.2850 237° Southwest 428 493 38,000  Level FlightAware ADS-B
Sat 06:13:14 PM 40.4430 -119.3730 237° Southwest 429 494 38,000  Level FlightAware ADS-B
Sat 06:13:55 PM 40.3960 -119.4670 237° Southwest 427 491 38,000 -141 Level FlightAware ADS-B
Sat 06:14:39 PM 40.3510 -119.5580 237° Southwest 429 494 37,800 -652 Descending FlightAware ADS-B
Sat 06:15:27 PM 40.3020 -119.6550 237° Southwest 437 503 37,000 -1,067 Descending FlightAware ADS-B
Sat 06:16:09 PM 40.2490 -119.7610 237° Southwest 431 496 36,200 -714 Descending FlightAware ADS-B
Sat 06:16:51 PM 40.2030 -119.8540 237° Southwest 432 497 36,000 -158 Descending FlightAware ADS-B
Sat 06:17:25 PM 40.1730 -119.9140 237° Southwest 431 496 36,000  Level FlightAware ADS-B
Sat 06:18:11 PM 40.1160 -120.0260 236° Southwest 433 498 36,000  Level FlightAware ADS-B
Sat 06:18:52 PM 40.0710 -120.1150 237° Southwest 431 496 36,000  Level FlightAware ADS-B
Sat 06:19:27 PM 40.0320 -120.1930 237° Southwest 430 495 36,000  Level FlightAware ADS-B
Sat 06:20:23 PM 39.9710 -120.3130 236° Southwest 429 494 36,000  Level FlightAware ADS-B
Sat 06:21:07 PM 39.9220 -120.4080 236° Southwest 429 494 36,000  Level FlightAware ADS-B
Sat 06:21:49 PM 39.8760 -120.4980 236° Southwest 431 496 36,000  Level FlightAware ADS-B
Sat 06:22:28 PM 39.8330 -120.5810 236° Southwest 430 495 36,000  Level FlightAware ADS-B
Sat 06:23:11 PM 39.7850 -120.6740 236° Southwest 429 494 36,000  Level FlightAware ADS-B
Sat 06:23:52 PM 39.7420 -120.7570 236° Southwest 428 493 36,000  Level FlightAware ADS-B
Sat 06:24:42 PM 39.6900 -120.8570 236° Southwest 428 493 36,000  Level FlightAware ADS-B
Sat 06:25:25 PM 39.6370 -120.9580 236° Southwest 430 495 36,000  Level FlightAware ADS-B
Sat 06:26:05 PM 39.5830 -121.0290 225° Southwest 431 496 36,000  Level FlightAware ADS-B
Sat 06:26:45 PM 39.5220 -121.1050 224° Southwest 432 497 36,000  Level FlightAware ADS-B
Sat 06:27:29 PM 39.4580 -121.1850 224° Southwest 434 499 36,000  Level FlightAware ADS-B
Sat 06:28:13 PM 39.3960 -121.2640 225° Southwest 433 498 36,000  Level FlightAware ADS-B
Sat 06:28:53 PM 39.3380 -121.3360 224° Southwest 432 497 36,000  Level FlightAware ADS-B
Sat 06:29:37 PM 39.2740 -121.4160 224° Southwest 430 495 36,000 -494 Level FlightAware ADS-B
Sat 06:30:18 PM 39.2180 -121.4850 224° Southwest 439 505 35,300 -1,271 Descending FlightAware ADS-B
Sat 06:31:02 PM 39.1520 -121.5680 224° Southwest 442 509 34,200 -1,553 Descending FlightAware ADS-B
Sat 06:31:43 PM 39.0920 -121.6420 224° Southwest 429 494 33,100 -1,500 Descending FlightAware ADS-B
Sat 06:32:26 PM 39.0300 -121.7180 224° Southwest 418 481 32,100 -1,403 Descending FlightAware ADS-B
Sat 06:33:00 PM 38.9830 -121.7760 224° Southwest 418 481 31,300 -1,342 Descending FlightAware ADS-B
Sat 06:33:42 PM 38.9250 -121.8470 224° Southwest 415 478 30,400 -1,325 Descending FlightAware ADS-B
Sat 06:34:17 PM 38.8780 -121.9050 224° Southwest 414 476 29,600 -1,263 Descending FlightAware ADS-B
Sat 06:34:58 PM 38.8190 -121.9780 224° Southwest 412 474 28,800 -988 Descending FlightAware ADS-B
Sat 06:35:42 PM 38.7610 -122.0480 223° Southwest 405 466 28,200 -585 Descending FlightAware ADS-B
Sat 06:36:20 PM 38.7070 -122.1140 224° Southwest 406 467 28,000 -929 Descending FlightAware ADS-B
Sat 06:37:06 PM 38.6460 -122.1880 223° Southwest 407 468 26,900 -1,902 Descending FlightAware ADS-B
Sat 06:37:42 PM 38.5960 -122.2490 224° Southwest 411 473 25,400 -1,880 Descending FlightAware ADS-B
Sat 06:38:29 PM 38.5370 -122.3200 223° Southwest 401 461 24,300 -1,267 Descending FlightAware ADS-B
Sat 06:39:12 PM 38.4760 -122.3940 224° Southwest 377 434 23,500 -1,595 Descending FlightAware ADS-B
Sat 06:39:48 PM 38.4350 -122.4430 223° Southwest 385 443 22,200 -2,447 Descending FlightAware ADS-B
Sat 06:40:28 PM 38.3810 -122.5080 223° Southwest 396 456 20,400 -2,800 Descending FlightAware ADS-B
Sat 06:41:03 PM 38.3300 -122.5690 223° Southwest 407 468 18,700 -2,488 Descending FlightAware ADS-B
Sat 06:41:50 PM 38.2650 -122.6470 223° Southwest 386 444 17,000 -2,308 Descending FlightAware ADS-B
Sat 06:42:34 PM 38.2090 -122.7140 223° Southwest 359 413 15,200 -2,357 Descending FlightAware ADS-B
Sat 06:43:14 PM 38.1630 -122.7690 223° Southwest 339 390 13,700 -1,786 Descending FlightAware ADS-B
Sat 06:43:58 PM 38.1140 -122.8270 223° Southwest 323 372 12,700 -1,286 Descending FlightAware ADS-B
Sat 06:44:10 PM 38.0980 -122.8400 213° Southwest 316 364 12,500 -923 Descending FlightAware ADS-B
Sat 06:44:24 PM 38.0780 -122.8450 191° South 309 356 12,300 -818 Descending FlightAware ADS-B
Sat 06:44:54 PM 38.0410 -122.8250 157° South 300 345 11,900 -762 Descending FlightAware ADS-B
Sat 06:45:27 PM 38.0070 -122.7880 139° Southeast 294 338 11,500 -623 Descending FlightAware ADS-B
Sat 06:46:11 PM 37.9620 -122.7400 140° Southeast 295 339 11,100 -286 Descending FlightAware ADS-B
Sat 06:46:51 PM 37.9210 -122.6950 139° Southeast 295 339 11,100  Level FlightAware ADS-B
Sat 06:47:35 PM 37.8780 -122.6500 140° Southeast 295 339 11,100  Level FlightAware ADS-B
Sat 06:48:20 PM 37.8260 -122.5930 139° Southeast 297 342 11,100  Level FlightAware ADS-B
Sat 06:49:06 PM 37.7780 -122.5420 140° Southeast 297 342 11,100  Level FlightAware ADS-B
Sat 06:49:19 PM 37.7640 -122.5280 142° Southeast 297 342 11,100  Level FlightAware ADS-B
Sat 06:49:52 PM 37.7290 -122.4900 139° Southeast 296 341 11,100  Level FlightAware ADS-B
Sat 06:50:30 PM 37.6880 -122.4470 140° Southeast 295 339 11,100  Level FlightAware ADS-B
Sat 06:50:45 PM 37.6737 -122.4320 140° Southeast 295 339 11,100  Level FlightAware ADS-B
Sat 06:51:16 PM 37.6420 -122.3980 140° Southeast 295 339 11,100 -295 Level FlightAware ADS-B
Sat 06:51:46 PM 37.6096 -122.3630 139° Southeast 294 338 10,800 -857 Descending FlightAware ADS-B
Sat 06:51:58 PM 37.5960 -122.3510 145° Southeast 292 336 10,500 -1,714 Descending FlightAware ADS-B
Sat 06:52:14 PM 37.5776 -122.3390 153° Southeast 288 331 10,000 -2,129 Descending FlightAware ADS-B
Sat 06:52:29 PM 37.5591 -122.3280 155° Southeast 283 326 9,400 -2,200 Descending FlightAware ADS-B
Sat 06:52:44 PM 37.5410 -122.3170 154° Southeast 279 321 8,900 -2,063 Descending FlightAware ADS-B
Sat 06:53:01 PM 37.5222 -122.3060 155° Southeast 275 316 8,300 -2,182 Descending FlightAware ADS-B
Sat 06:53:17 PM 37.5043 -122.2950 154° Southeast 272 313 7,700 -2,308 Descending FlightAware ADS-B
Sat 06:53:27 PM 37.4930 -122.2870 151° Southeast 272 313 7,300 -2,571 Descending FlightAware ADS-B
Sat 06:53:31 PM 37.4884 -122.2830 145° Southeast 272 313 7,100 -3,000 Descending FlightAware ADS-B
Sat 06:53:35 PM 37.4846 -122.2790 140° Southeast 272 313 6,900 -2,400 Descending FlightAware ADS-B
Sat 06:53:41 PM 37.4802 -122.2720 128° Southeast 272 313 6,700 -1,800 Descending FlightAware ADS-B
Sat 06:53:45 PM 37.4778 -122.2670 121° Southeast 271 312 6,600 -2,250 Descending FlightAware ADS-B
Sat 06:53:49 PM 37.4752 -122.2610 119° Southeast 270 311 6,400 -2,000 Descending FlightAware ADS-B
Sat 06:53:57 PM 37.4706 -122.2500 118° Southeast 266 306 6,200 -2,000 Descending FlightAware ADS-B
Sat 06:54:13 PM 37.4623 -122.2280 115° Southeast 261 300 5,600 -1,714 Descending FlightAware ADS-B
Sat 06:54:32 PM 37.4530 -122.2010 113° Southeast 251 289 5,200 -1,241 Descending FlightAware ADS-B
Sat 06:54:42 PM 37.4487 -122.1890 114° Southeast 238 274 5,000 -1,200 Descending FlightAware ADS-B
Sat 06:54:47 PM 37.4468 -122.1820 109° East 234 269 4,900 -1,333 Descending FlightAware ADS-B
Sat 06:54:51 PM 37.4461 -122.1770 100° East 233 268 4,800 -1,714 Descending FlightAware ADS-B
Sat 06:54:54 PM 37.4461 -122.1730 90° East 232 267 4,700 -857 Descending FlightAware ADS-B
Sat 06:54:58 PM 37.4465 -122.1680 84° East 230 265 4,700  Level FlightAware ADS-B
Sat 06:55:01 PM 37.4474 -122.1640 74° East 229 264 4,700 -857 Level FlightAware ADS-B
Sat 06:55:05 PM 37.4489 -122.1590 69° East 227 261 4,600 -750 Descending FlightAware ADS-B
Sat 06:55:09 PM 37.4513 -122.1540 59° Northeast 223 257 4,600 -750 Level FlightAware ADS-B
Sat 06:55:13 PM 37.4535 -122.1510 47° Northeast 222 255 4,500 -750 Descending FlightAware ADS-B
Sat 06:55:17 PM 37.4566 -122.1480 38° Northeast 221 254 4,500 -750 Level FlightAware ADS-B
Sat 06:55:21 PM 37.4604 -122.1440 40° Northeast 219 252 4,400 -1,500 Descending FlightAware ADS-B
Sat 06:55:25 PM 37.4643 -122.1420 22° Northeast 217 250 4,300 -750 Descending FlightAware ADS-B
Sat 06:55:29 PM 37.4678 -122.1410 13° North 214 246 4,300 -750 Level FlightAware ADS-B
Sat 06:55:33 PM 37.4717 -122.1400 12° North 213 245 4,200 -857 Descending FlightAware ADS-B
Sat 06:55:36 PM 37.4750 -122.1400 360° North 211 243 4,200 -857 Level FlightAware ADS-B
Sat 06:55:40 PM 37.4784 -122.1410 347° North 210 242 4,100 -1,714 Descending FlightAware ADS-B
Sat 06:55:43 PM 37.4814 -122.1420 345° North 210 242 4,000 -1,800 Descending FlightAware ADS-B
Sat 06:55:50 PM 37.4878 -122.1450 340° North 214 246 3,800 -1,636 Descending FlightAware ADS-B
Sat 06:55:54 PM 37.4913 -122.1480 326° Northwest 215 247 3,700 -1,091 Descending FlightAware ADS-B
Sat 06:56:12 PM 37.5057 -122.1600 327° Northwest 213 245 3,400 -909 Descending FlightAware ADS-B
Sat 06:56:27 PM 37.5179 -122.1710 324° Northwest 210 242 3,200 -720 Descending FlightAware ADS-B
Sat 06:56:37 PM 37.5258 -122.1780 325° Northwest 205 236 3,100 -632 Descending FlightAware ADS-B
Sat 06:56:46 PM 37.5326 -122.1850 321° Northwest 201 231 3,000 -923 Descending FlightAware ADS-B
Sat 06:56:50 PM 37.5349 -122.1880 314° West 201 231 2,900 -1,333 Descending FlightAware ADS-B
Sat 06:56:55 PM 37.5387 -122.1930 314° West 202 232 2,800 -667 Descending FlightAware ADS-B
Sat 06:56:59 PM 37.5405 -122.1950 319° Northwest 200 230 2,800 -667 Level FlightAware ADS-B
Sat 06:57:04 PM 37.5436 -122.2010 303° West 199 229 2,700 -1,000 Descending FlightAware ADS-B
Sat 06:57:11 PM 37.5468 -122.2070 304° West 197 227 2,600 -857 Descending FlightAware ADS-B
Sat 06:57:18 PM 37.5500 -122.2140 300° West 195 224 2,500 -783 Descending FlightAware ADS-B
Sat 06:57:34 PM 37.5570 -122.2300 299° West 191 220 2,300 -828 Descending FlightAware ADS-B
Sat 06:57:47 PM 37.5624 -122.2430 298° West 186 214 2,100 -692 Descending FlightAware ADS-B
Sat 06:58:00 PM 37.5680 -122.2540 303° West 176 203 2,000 -353 Descending FlightAware ADS-B
Sat 06:58:04 PM 37.5694 -122.2580 294° West 173 199 2,000 -667 Level FlightAware ADS-B
Sat 06:58:18 PM 37.5743 -122.2700 297° West 169 194 1,800 -1,000 Descending FlightAware ADS-B
Sat 06:58:34 PM 37.5801 -122.2840 298° West 166 191 1,500 -938 Descending FlightAware ADS-B
Sat 06:58:50 PM 37.5859 -122.2970 299° West 156 180 1,300 -750 Descending FlightAware ADS-B
Sat 07:01:00 PM 37.6191 -122.3752 298° West  Level Estimated
Sat 07:02:00 PM 37.6191 -122.3752 156° South  Level Estimated
Sat 07:03:00 PM 37.6191 -122.3752 24° Northeast  Level Estimated
Sat 07:04:00 PM 37.6191 -122.3752 156° South  Level Estimated
Sat 07:05:00 PM 37.6191 -122.3752 24° Northeast  Level Estimated
Sat 07:06:00 PM 37.6191 -122.3752 156° South  Level Estimated
Sat 07:07:00 PM 37.6191 -122.3752 24° Northeast  Level Estimated
Sat 07:08:00 PM 37.6191 -122.3752 156° South  Level Estimated
Sat 07:09:00 PM 37.6191 -122.3752 24° Northeast  Level Estimated
Sat 07:10:00 PM 37.6191 -122.3752 156° South  Level Estimated

Login

Don't have an account? Register now (free) for customized features, flight alerts, and more!